<?xml version="1.0" encoding="UTF-8" standalone="no" ?><gpx xmlns="http://www.topografix.com/GPX/1/1" xmlns:gpxx="http://www.garmin.com/xmlschemas/GpxExtensions/v3" xmlns:wptx1="http://www.garmin.com/xmlschemas/WaypointExtension/v1" xmlns:gpxtpx="http://www.garmin.com/xmlschemas/TrackPointExtension/v1" creator="GuideVTT.com" version="1.1" xmlns:xsi="http://www.w3.org/2001/XMLSchema-instance" xsi:schemaLocation="http://www.topografix.com/GPX/1/1 http://www.topografix.com/GPX/1/1/gpx.xsd http://www.garmin.com/xmlschemas/GpxExtensions/v3 http://www8.garmin.com/xmlschemas/GpxExtensionsv3.xsd http://www.garmin.com/xmlschemas/WaypointExtension/v1 http://www8.garmin.com/xmlschemas/WaypointExtensionv1.xsd http://www.garmin.com/xmlschemas/TrackPointExtension/v1 http://www.garmin.com/xmlschemas/TrackPointExtensionv1.xsd">
<metadata><link href="http://www.garmin.com"><text>Garmin International</text></link><time>2013-06-22T15:13:50Z</time></metadata>
<trk><name>paccots-ratvel_22.08.07.gpx</name><extensions><gpxx:TrackExtension><gpxx:DisplayColor>Cyan</gpxx:DisplayColor></gpxx:TrackExtension></extensions><trkseg>
<trkpt lat="46.52217876" lon="6.94842163"><ele></ele><time>2014-5-15T12:37:14Z</time></trkpt>
<trkpt lat="46.52216133" lon="6.94840645"><ele></ele><time>2014-5-15T12:37:17Z</time></trkpt>
<trkpt lat="46.52215806" lon="6.94841249"><ele></ele><time>2014-5-15T12:37:20Z</time></trkpt>
<trkpt lat="46.52215504" lon="6.94841777"><ele></ele><time>2014-5-15T12:37:23Z</time></trkpt>
<trkpt lat="46.52214993" lon="6.94841626"><ele></ele><time>2014-5-15T12:37:26Z</time></trkpt>
<trkpt lat="46.52214222" lon="6.94840838"><ele></ele><time>2014-5-15T12:37:29Z</time></trkpt>
<trkpt lat="46.52214104" lon="6.94848424"><ele></ele><time>2014-5-15T12:37:32Z</time></trkpt>
<trkpt lat="46.52214398" lon="6.94847049"><ele></ele><time>2014-5-15T12:37:35Z</time></trkpt>
<trkpt lat="46.52212470" lon="6.94852355"><ele></ele><time>2014-5-15T12:37:38Z</time></trkpt>
<trkpt lat="46.52212118" lon="6.94854065"><ele></ele><time>2014-5-15T12:37:41Z</time></trkpt>
<trkpt lat="46.52211439" lon="6.94859639"><ele></ele><time>2014-5-15T12:37:44Z</time></trkpt>
<trkpt lat="46.52211037" lon="6.94859505"><ele></ele><time>2014-5-15T12:37:47Z</time></trkpt>
<trkpt lat="46.52210777" lon="6.94859086"><ele></ele><time>2014-5-15T12:37:50Z</time></trkpt>
<trkpt lat="46.52210877" lon="6.94858390"><ele></ele><time>2014-5-15T12:37:53Z</time></trkpt>
<trkpt lat="46.52210760" lon="6.94859102"><ele></ele><time>2014-5-15T12:37:56Z</time></trkpt>
<trkpt lat="46.52212872" lon="6.94861399"><ele></ele><time>2014-5-15T12:37:59Z</time></trkpt>
<trkpt lat="46.52210525" lon="6.94854769"><ele></ele><time>2014-5-15T12:38:2Z</time></trkpt>
<trkpt lat="46.52208447" lon="6.94858172"><ele></ele><time>2014-5-15T12:38:5Z</time></trkpt>
<trkpt lat="46.52210232" lon="6.94856755"><ele></ele><time>2014-5-15T12:38:8Z</time></trkpt>
<trkpt lat="46.52207307" lon="6.94861902"><ele></ele><time>2014-5-15T12:38:11Z</time></trkpt>
<trkpt lat="46.52208136" lon="6.94863318"><ele></ele><time>2014-5-15T12:38:14Z</time></trkpt>
<trkpt lat="46.52207038" lon="6.94862950"><ele></ele><time>2014-5-15T12:38:17Z</time></trkpt>
<trkpt lat="46.52206385" lon="6.94862623"><ele></ele><time>2014-5-15T12:38:20Z</time></trkpt>
<trkpt lat="46.52206996" lon="6.94862212"><ele></ele><time>2014-5-15T12:38:23Z</time></trkpt>
<trkpt lat="46.52206963" lon="6.94864668"><ele></ele><time>2014-5-15T12:38:26Z</time></trkpt>
<trkpt lat="46.52197022" lon="6.94911808"><ele></ele><time>2014-5-15T12:38:29Z</time></trkpt>
<trkpt lat="46.52174919" lon="6.94993397"><ele></ele><time>2014-5-15T12:38:32Z</time></trkpt>
<trkpt lat="46.52147879" lon="6.95072698"><ele></ele><time>2014-5-15T12:38:35Z</time></trkpt>
<trkpt lat="46.52118660" lon="6.95151103"><ele></ele><time>2014-5-15T12:38:38Z</time></trkpt>
<trkpt lat="46.52085165" lon="6.95205845"><ele></ele><time>2014-5-15T12:38:41Z</time></trkpt>
<trkpt lat="46.52047967" lon="6.95237126"><ele></ele><time>2014-5-15T12:38:44Z</time></trkpt>
<trkpt lat="46.52032670" lon="6.95274669"><ele></ele><time>2014-5-15T12:38:47Z</time></trkpt>
<trkpt lat="46.52014456" lon="6.95326176"><ele></ele><time>2014-5-15T12:38:50Z</time></trkpt>
<trkpt lat="46.51996317" lon="6.95368320"><ele></ele><time>2014-5-15T12:38:53Z</time></trkpt>
<trkpt lat="46.51978967" lon="6.95409165"><ele></ele><time>2014-5-15T12:38:56Z</time></trkpt>
<trkpt lat="46.51963058" lon="6.95453832"><ele></ele><time>2014-5-15T12:38:59Z</time></trkpt>
<trkpt lat="46.51949395" lon="6.95502053"><ele></ele><time>2014-5-15T12:39:2Z</time></trkpt>
<trkpt lat="46.51930695" lon="6.95559327"><ele></ele><time>2014-5-15T12:39:5Z</time></trkpt>
<trkpt lat="46.51910394" lon="6.95619903"><ele></ele><time>2014-5-15T12:39:8Z</time></trkpt>
<trkpt lat="46.51909087" lon="6.95638494"><ele></ele><time>2014-5-15T12:39:11Z</time></trkpt>
<trkpt lat="46.51919723" lon="6.95712883"><ele></ele><time>2014-5-15T12:39:14Z</time></trkpt>
<trkpt lat="46.51901049" lon="6.95767474"><ele></ele><time>2014-5-15T12:39:17Z</time></trkpt>
<trkpt lat="46.51889197" lon="6.95781975"><ele></ele><time>2014-5-15T12:39:20Z</time></trkpt>
<trkpt lat="46.51881586" lon="6.95810515"><ele></ele><time>2014-5-15T12:39:23Z</time></trkpt>
<trkpt lat="46.51881888" lon="6.95928608"><ele></ele><time>2014-5-15T12:39:26Z</time></trkpt>
<trkpt lat="46.51873606" lon="6.95996904"><ele></ele><time>2014-5-15T12:39:29Z</time></trkpt>
<trkpt lat="46.51871888" lon="6.96060154"><ele></ele><time>2014-5-15T12:39:32Z</time></trkpt>
<trkpt lat="46.51874688" lon="6.96097964"><ele></ele><time>2014-5-15T12:39:35Z</time></trkpt>
<trkpt lat="46.51874285" lon="6.96111007"><ele></ele><time>2014-5-15T12:39:38Z</time></trkpt>
<trkpt lat="46.51877705" lon="6.96171625"><ele></ele><time>2014-5-15T12:39:41Z</time></trkpt>
<trkpt lat="46.51866792" lon="6.96210106"><ele></ele><time>2014-5-15T12:39:44Z</time></trkpt>
<trkpt lat="46.51851679" lon="6.96239258"><ele></ele><time>2014-5-15T12:39:47Z</time></trkpt>
<trkpt lat="46.51836994" lon="6.96275946"><ele></ele><time>2014-5-15T12:39:50Z</time></trkpt>
<trkpt lat="46.51823860" lon="6.96311418"><ele></ele><time>2014-5-15T12:39:53Z</time></trkpt>
<trkpt lat="46.51814036" lon="6.96338584"><ele></ele><time>2014-5-15T12:39:56Z</time></trkpt>
<trkpt lat="46.51811806" lon="6.96355633"><ele></ele><time>2014-5-15T12:39:59Z</time></trkpt>
<trkpt lat="46.51805369" lon="6.96389009"><ele></ele><time>2014-5-15T12:40:2Z</time></trkpt>
<trkpt lat="46.51806878" lon="6.96399319"><ele></ele><time>2014-5-15T12:40:5Z</time></trkpt>
<trkpt lat="46.51807674" lon="6.96408514"><ele></ele><time>2014-5-15T12:40:8Z</time></trkpt>
<trkpt lat="46.51808596" lon="6.96417642"><ele></ele><time>2014-5-15T12:40:11Z</time></trkpt>
<trkpt lat="46.51808948" lon="6.96426543"><ele></ele><time>2014-5-15T12:40:14Z</time></trkpt>
<trkpt lat="46.51810214" lon="6.96464136"><ele></ele><time>2014-5-15T12:40:17Z</time></trkpt>
<trkpt lat="46.51802058" lon="6.96502249"><ele></ele><time>2014-5-15T12:40:20Z</time></trkpt>
<trkpt lat="46.51806467" lon="6.96539783"><ele></ele><time>2014-5-15T12:40:23Z</time></trkpt>
<trkpt lat="46.51810239" lon="6.96549850"><ele></ele><time>2014-5-15T12:40:26Z</time></trkpt>
<trkpt lat="46.51816936" lon="6.96570528"><ele></ele><time>2014-5-15T12:40:29Z</time></trkpt>
<trkpt lat="46.51821278" lon="6.96587426"><ele></ele><time>2014-5-15T12:40:32Z</time></trkpt>
<trkpt lat="46.51822275" lon="6.96604164"><ele></ele><time>2014-5-15T12:40:35Z</time></trkpt>
<trkpt lat="46.51825000" lon="6.96610719"><ele></ele><time>2014-5-15T12:40:38Z</time></trkpt>
<trkpt lat="46.51817204" lon="6.96631623"><ele></ele><time>2014-5-15T12:40:41Z</time></trkpt>
<trkpt lat="46.51817649" lon="6.96661949"><ele></ele><time>2014-5-15T12:40:44Z</time></trkpt>
<trkpt lat="46.51816743" lon="6.96670884"><ele></ele><time>2014-5-15T12:40:47Z</time></trkpt>
<trkpt lat="46.51817062" lon="6.96701705"><ele></ele><time>2014-5-15T12:40:50Z</time></trkpt>
<trkpt lat="46.51815654" lon="6.96724562"><ele></ele><time>2014-5-15T12:40:53Z</time></trkpt>
<trkpt lat="46.51815863" lon="6.96735584"><ele></ele><time>2014-5-15T12:40:56Z</time></trkpt>
<trkpt lat="46.51820239" lon="6.96749699"><ele></ele><time>2014-5-15T12:40:59Z</time></trkpt>
<trkpt lat="46.51825645" lon="6.96769648"><ele></ele><time>2014-5-15T12:41:2Z</time></trkpt>
<trkpt lat="46.51828662" lon="6.96796906"><ele></ele><time>2014-5-15T12:41:5Z</time></trkpt>
<trkpt lat="46.51826668" lon="6.96800318"><ele></ele><time>2014-5-15T12:41:8Z</time></trkpt>
<trkpt lat="46.51817548" lon="6.96834566"><ele></ele><time>2014-5-15T12:41:11Z</time></trkpt>
<trkpt lat="46.51805855" lon="6.96854062"><ele></ele><time>2014-5-15T12:41:14Z</time></trkpt>
<trkpt lat="46.51796526" lon="6.96857876"><ele></ele><time>2014-5-15T12:41:17Z</time></trkpt>
<trkpt lat="46.51783979" lon="6.96863970"><ele></ele><time>2014-5-15T12:41:20Z</time></trkpt>
<trkpt lat="46.51770953" lon="6.96866057"><ele></ele><time>2014-5-15T12:41:23Z</time></trkpt>
<trkpt lat="46.51752144" lon="6.96864942"><ele></ele><time>2014-5-15T12:41:26Z</time></trkpt>
<trkpt lat="46.51743243" lon="6.96864665"><ele></ele><time>2014-5-15T12:41:29Z</time></trkpt>
<trkpt lat="46.51713789" lon="6.96861095"><ele></ele><time>2014-5-15T12:41:32Z</time></trkpt>
<trkpt lat="46.51712464" lon="6.96861799"><ele></ele><time>2014-5-15T12:41:35Z</time></trkpt>
<trkpt lat="46.51709732" lon="6.96867960"><ele></ele><time>2014-5-15T12:41:38Z</time></trkpt>
<trkpt lat="46.51698885" lon="6.96882863"><ele></ele><time>2014-5-15T12:41:41Z</time></trkpt>
<trkpt lat="46.51683915" lon="6.96907229"><ele></ele><time>2014-5-15T12:41:44Z</time></trkpt>
<trkpt lat="46.51667546" lon="6.96926457"><ele></ele><time>2014-5-15T12:41:47Z</time></trkpt>
<trkpt lat="46.51651922" lon="6.96952583"><ele></ele><time>2014-5-15T12:41:50Z</time></trkpt>
<trkpt lat="46.51647278" lon="6.96981685"><ele></ele><time>2014-5-15T12:41:53Z</time></trkpt>
<trkpt lat="46.51664645" lon="6.97009689"><ele></ele><time>2014-5-15T12:41:56Z</time></trkpt>
<trkpt lat="46.51680797" lon="6.97034667"><ele></ele><time>2014-5-15T12:41:59Z</time></trkpt>
<trkpt lat="46.51693462" lon="6.97057583"><ele></ele><time>2014-5-15T12:42:2Z</time></trkpt>
<trkpt lat="46.51706605" lon="6.97078899"><ele></ele><time>2014-5-15T12:42:5Z</time></trkpt>
<trkpt lat="46.51719128" lon="6.97098814"><ele></ele><time>2014-5-15T12:42:8Z</time></trkpt>
<trkpt lat="46.51734198" lon="6.97114077"><ele></ele><time>2014-5-15T12:42:11Z</time></trkpt>
<trkpt lat="46.51739295" lon="6.97125720"><ele></ele><time>2014-5-15T12:42:14Z</time></trkpt>
<trkpt lat="46.51737233" lon="6.97141763"><ele></ele><time>2014-5-15T12:42:17Z</time></trkpt>
<trkpt lat="46.51730594" lon="6.97151058"><ele></ele><time>2014-5-15T12:42:20Z</time></trkpt>
<trkpt lat="46.51715767" lon="6.97173513"><ele></ele><time>2014-5-15T12:42:23Z</time></trkpt>
<trkpt lat="46.51704820" lon="6.97187159"><ele></ele><time>2014-5-15T12:42:26Z</time></trkpt>
<trkpt lat="46.51699623" lon="6.97194183"><ele></ele><time>2014-5-15T12:42:29Z</time></trkpt>
<trkpt lat="46.51691820" lon="6.97209095"><ele></ele><time>2014-5-15T12:42:32Z</time></trkpt>
<trkpt lat="46.51681728" lon="6.97228365"><ele></ele><time>2014-5-15T12:42:35Z</time></trkpt>
<trkpt lat="46.51680873" lon="6.97231214"><ele></ele><time>2014-5-15T12:42:38Z</time></trkpt>
<trkpt lat="46.51678727" lon="6.97249395"><ele></ele><time>2014-5-15T12:42:41Z</time></trkpt>
<trkpt lat="46.51687629" lon="6.97270039"><ele></ele><time>2014-5-15T12:42:44Z</time></trkpt>
<trkpt lat="46.51697645" lon="6.97286837"><ele></ele><time>2014-5-15T12:42:47Z</time></trkpt>
<trkpt lat="46.51705164" lon="6.97305327"><ele></ele><time>2014-5-15T12:42:50Z</time></trkpt>
<trkpt lat="46.51713286" lon="6.97328227"><ele></ele><time>2014-5-15T12:42:53Z</time></trkpt>
<trkpt lat="46.51714568" lon="6.97330448"><ele></ele><time>2014-5-15T12:42:56Z</time></trkpt>
<trkpt lat="46.51722573" lon="6.97342702"><ele></ele><time>2014-5-15T12:42:59Z</time></trkpt>
<trkpt lat="46.51738448" lon="6.97362777"><ele></ele><time>2014-5-15T12:43:2Z</time></trkpt>
<trkpt lat="46.51757693" lon="6.97385257"><ele></ele><time>2014-5-15T12:43:5Z</time></trkpt>
<trkpt lat="46.51767399" lon="6.97413219"><ele></ele><time>2014-5-15T12:43:8Z</time></trkpt>
<trkpt lat="46.51762663" lon="6.97446764"><ele></ele><time>2014-5-15T12:43:11Z</time></trkpt>
<trkpt lat="46.51740342" lon="6.97474374"><ele></ele><time>2014-5-15T12:43:14Z</time></trkpt>
<trkpt lat="46.51707837" lon="6.97504565"><ele></ele><time>2014-5-15T12:43:17Z</time></trkpt>
<trkpt lat="46.51682289" lon="6.97523315"><ele></ele><time>2014-5-15T12:43:20Z</time></trkpt>
<trkpt lat="46.51671275" lon="6.97528068"><ele></ele><time>2014-5-15T12:43:23Z</time></trkpt>
<trkpt lat="46.51663254" lon="6.97528127"><ele></ele><time>2014-5-15T12:43:26Z</time></trkpt>
<trkpt lat="46.51661913" lon="6.97521723"><ele></ele><time>2014-5-15T12:43:29Z</time></trkpt>
<trkpt lat="46.51665970" lon="6.97512075"><ele></ele><time>2014-5-15T12:43:32Z</time></trkpt>
<trkpt lat="46.51675642" lon="6.97504783"><ele></ele><time>2014-5-15T12:43:35Z</time></trkpt>
<trkpt lat="46.51676715" lon="6.97507247"><ele></ele><time>2014-5-15T12:43:38Z</time></trkpt>
<trkpt lat="46.51675232" lon="6.97517758"><ele></ele><time>2014-5-15T12:43:41Z</time></trkpt>
<trkpt lat="46.51672508" lon="6.97520306"><ele></ele><time>2014-5-15T12:43:44Z</time></trkpt>
<trkpt lat="46.51675986" lon="6.97524833"><ele></ele><time>2014-5-15T12:43:47Z</time></trkpt>
<trkpt lat="46.51677218" lon="6.97528847"><ele></ele><time>2014-5-15T12:43:50Z</time></trkpt>
<trkpt lat="46.51679423" lon="6.97529820"><ele></ele><time>2014-5-15T12:43:53Z</time></trkpt>
<trkpt lat="46.51681342" lon="6.97532183"><ele></ele><time>2014-5-15T12:43:56Z</time></trkpt>
<trkpt lat="46.51681476" lon="6.97534950"><ele></ele><time>2014-5-15T12:43:59Z</time></trkpt>
<trkpt lat="46.51670119" lon="6.97574487"><ele></ele><time>2014-5-15T12:44:2Z</time></trkpt>
<trkpt lat="46.51661410" lon="6.97615483"><ele></ele><time>2014-5-15T12:44:5Z</time></trkpt>
<trkpt lat="46.51669323" lon="6.97675405"><ele></ele><time>2014-5-15T12:44:8Z</time></trkpt>
<trkpt lat="46.51683136" lon="6.97733944"><ele></ele><time>2014-5-15T12:44:11Z</time></trkpt>
<trkpt lat="46.51689783" lon="6.97788209"><ele></ele><time>2014-5-15T12:44:14Z</time></trkpt>
<trkpt lat="46.51694393" lon="6.97842398"><ele></ele><time>2014-5-15T12:44:17Z</time></trkpt>
<trkpt lat="46.51675207" lon="6.97893812"><ele></ele><time>2014-5-15T12:44:20Z</time></trkpt>
<trkpt lat="46.51671678" lon="6.97907064"><ele></ele><time>2014-5-15T12:44:23Z</time></trkpt>
<trkpt lat="46.51671737" lon="6.97942285"><ele></ele><time>2014-5-15T12:44:26Z</time></trkpt>
<trkpt lat="46.51677470" lon="6.97981277"><ele></ele><time>2014-5-15T12:44:29Z</time></trkpt>
<trkpt lat="46.51673463" lon="6.98013925"><ele></ele><time>2014-5-15T12:44:32Z</time></trkpt>
<trkpt lat="46.51668250" lon="6.98029708"><ele></ele><time>2014-5-15T12:44:35Z</time></trkpt>
<trkpt lat="46.51671468" lon="6.98105388"><ele></ele><time>2014-5-15T12:44:38Z</time></trkpt>
<trkpt lat="46.51686229" lon="6.98122814"><ele></ele><time>2014-5-15T12:44:41Z</time></trkpt>
<trkpt lat="46.51708089" lon="6.98149846"><ele></ele><time>2014-5-15T12:44:44Z</time></trkpt>
<trkpt lat="46.51742346" lon="6.98173743"><ele></ele><time>2014-5-15T12:44:47Z</time></trkpt>
<trkpt lat="46.51744458" lon="6.98169342"><ele></ele><time>2014-5-15T12:44:50Z</time></trkpt>
<trkpt lat="46.51746159" lon="6.98162645"><ele></ele><time>2014-5-15T12:44:53Z</time></trkpt>
<trkpt lat="46.51744366" lon="6.98146393"><ele></ele><time>2014-5-15T12:44:56Z</time></trkpt>
<trkpt lat="46.51732866" lon="6.98109319"><ele></ele><time>2014-5-15T12:44:59Z</time></trkpt>
<trkpt lat="46.51736294" lon="6.98067502"><ele></ele><time>2014-5-15T12:45:2Z</time></trkpt>
<trkpt lat="46.51754156" lon="6.98044033"><ele></ele><time>2014-5-15T12:45:5Z</time></trkpt>
<trkpt lat="46.51767215" lon="6.98025953"><ele></ele><time>2014-5-15T12:45:8Z</time></trkpt>
<trkpt lat="46.51780173" lon="6.97999257"><ele></ele><time>2014-5-15T12:45:11Z</time></trkpt>
<trkpt lat="46.51792377" lon="6.97975385"><ele></ele><time>2014-5-15T12:45:14Z</time></trkpt>
<trkpt lat="46.51807624" lon="6.97950114"><ele></ele><time>2014-5-15T12:45:17Z</time></trkpt>
<trkpt lat="46.51827933" lon="6.97918262"><ele></ele><time>2014-5-15T12:45:20Z</time></trkpt>
<trkpt lat="46.51850824" lon="6.97884575"><ele></ele><time>2014-5-15T12:45:23Z</time></trkpt>
<trkpt lat="46.51887177" lon="6.97821183"><ele></ele><time>2014-5-15T12:45:26Z</time></trkpt>
<trkpt lat="46.51924250" lon="6.97758285"><ele></ele><time>2014-5-15T12:45:29Z</time></trkpt>
<trkpt lat="46.51940997" lon="6.97730969"><ele></ele><time>2014-5-15T12:45:32Z</time></trkpt>
<trkpt lat="46.51959127" lon="6.97710668"><ele></ele><time>2014-5-15T12:45:35Z</time></trkpt>
<trkpt lat="46.51980157" lon="6.97674885"><ele></ele><time>2014-5-15T12:45:38Z</time></trkpt>
<trkpt lat="46.51991774" lon="6.97620353"><ele></ele><time>2014-5-15T12:45:41Z</time></trkpt>
<trkpt lat="46.52005026" lon="6.97543499"><ele></ele><time>2014-5-15T12:45:44Z</time></trkpt>
<trkpt lat="46.52016233" lon="6.97459739"><ele></ele><time>2014-5-15T12:45:47Z</time></trkpt>
<trkpt lat="46.52021538" lon="6.97405617"><ele></ele><time>2014-5-15T12:45:50Z</time></trkpt>
<trkpt lat="46.52026098" lon="6.97342132"><ele></ele><time>2014-5-15T12:45:53Z</time></trkpt>
<trkpt lat="46.52046357" lon="6.97302184"><ele></ele><time>2014-5-15T12:45:56Z</time></trkpt>
<trkpt lat="46.52091519" lon="6.97286217"><ele></ele><time>2014-5-15T12:45:59Z</time></trkpt>
<trkpt lat="46.52137158" lon="6.97279276"><ele></ele><time>2014-5-15T12:46:2Z</time></trkpt>
<trkpt lat="46.52166369" lon="6.97279352"><ele></ele><time>2014-5-15T12:46:5Z</time></trkpt>
<trkpt lat="46.52198363" lon="6.97278639"><ele></ele><time>2014-5-15T12:46:8Z</time></trkpt>
<trkpt lat="46.52243433" lon="6.97274088"><ele></ele><time>2014-5-15T12:46:11Z</time></trkpt>
<trkpt lat="46.52274915" lon="6.97286745"><ele></ele><time>2014-5-15T12:46:14Z</time></trkpt>
<trkpt lat="46.52297194" lon="6.97312678"><ele></ele><time>2014-5-15T12:46:17Z</time></trkpt>
<trkpt lat="46.52320219" lon="6.97345443"><ele></ele><time>2014-5-15T12:46:20Z</time></trkpt>
<trkpt lat="46.52338617" lon="6.97378652"><ele></ele><time>2014-5-15T12:46:23Z</time></trkpt>
<trkpt lat="46.52366973" lon="6.97423504"><ele></ele><time>2014-5-15T12:46:26Z</time></trkpt>
<trkpt lat="46.52391247" lon="6.97461625"><ele></ele><time>2014-5-15T12:46:29Z</time></trkpt>
<trkpt lat="46.52411004" lon="6.97495027"><ele></ele><time>2014-5-15T12:46:32Z</time></trkpt>
<trkpt lat="46.52427457" lon="6.97536626"><ele></ele><time>2014-5-15T12:46:35Z</time></trkpt>
<trkpt lat="46.52455319" lon="6.97571218"><ele></ele><time>2014-5-15T12:46:38Z</time></trkpt>
<trkpt lat="46.52468470" lon="6.97594402"><ele></ele><time>2014-5-15T12:46:41Z</time></trkpt>
<trkpt lat="46.52494035" lon="6.97659194"><ele></ele><time>2014-5-15T12:46:44Z</time></trkpt>
<trkpt lat="46.52523958" lon="6.97747439"><ele></ele><time>2014-5-15T12:46:47Z</time></trkpt>
<trkpt lat="46.52546489" lon="6.97755259"><ele></ele><time>2014-5-15T12:46:50Z</time></trkpt>
<trkpt lat="46.52559036" lon="6.97747816"><ele></ele><time>2014-5-15T12:46:53Z</time></trkpt>
<trkpt lat="46.52580955" lon="6.97742729"><ele></ele><time>2014-5-15T12:46:56Z</time></trkpt>
<trkpt lat="46.52593796" lon="6.97743357"><ele></ele><time>2014-5-15T12:46:59Z</time></trkpt>
<trkpt lat="46.52625555" lon="6.97734028"><ele></ele><time>2014-5-15T12:47:2Z</time></trkpt>
<trkpt lat="46.52650382" lon="6.97724565"><ele></ele><time>2014-5-15T12:47:5Z</time></trkpt>
<trkpt lat="46.52667456" lon="6.97728873"><ele></ele><time>2014-5-15T12:47:8Z</time></trkpt>
<trkpt lat="46.52750202" lon="6.97752058"><ele></ele><time>2014-5-15T12:47:11Z</time></trkpt>
<trkpt lat="46.52754913" lon="6.97753407"><ele></ele><time>2014-5-15T12:47:14Z</time></trkpt>
<trkpt lat="46.52774443" lon="6.97756349"><ele></ele><time>2014-5-15T12:47:17Z</time></trkpt>
<trkpt lat="46.52820778" lon="6.97767698"><ele></ele><time>2014-5-15T12:47:20Z</time></trkpt>
<trkpt lat="46.52860357" lon="6.97790463"><ele></ele><time>2014-5-15T12:47:23Z</time></trkpt>
<trkpt lat="46.52885713" lon="6.97831845"><ele></ele><time>2014-5-15T12:47:26Z</time></trkpt>
<trkpt lat="46.52891639" lon="6.97843940"><ele></ele><time>2014-5-15T12:47:29Z</time></trkpt>
<trkpt lat="46.52908076" lon="6.97839095"><ele></ele><time>2014-5-15T12:47:32Z</time></trkpt>
<trkpt lat="46.52913624" lon="6.97838224"><ele></ele><time>2014-5-15T12:47:35Z</time></trkpt>
<trkpt lat="46.52939692" lon="6.97837494"><ele></ele><time>2014-5-15T12:47:38Z</time></trkpt>
<trkpt lat="46.52951385" lon="6.97840235"><ele></ele><time>2014-5-15T12:47:41Z</time></trkpt>
<trkpt lat="46.52968626" lon="6.97857016"><ele></ele><time>2014-5-15T12:47:44Z</time></trkpt>
<trkpt lat="46.52993068" lon="6.97891105"><ele></ele><time>2014-5-15T12:47:47Z</time></trkpt>
<trkpt lat="46.53014090" lon="6.97916184"><ele></ele><time>2014-5-15T12:47:50Z</time></trkpt>
<trkpt lat="46.53020988" lon="6.97924658"><ele></ele><time>2014-5-15T12:47:53Z</time></trkpt>
<trkpt lat="46.53044483" lon="6.97964958"><ele></ele><time>2014-5-15T12:47:56Z</time></trkpt>
<trkpt lat="46.53080475" lon="6.98007622"><ele></ele><time>2014-5-15T12:47:59Z</time></trkpt>
<trkpt lat="46.53124932" lon="6.98024972"><ele></ele><time>2014-5-15T12:48:2Z</time></trkpt>
<trkpt lat="46.53152634" lon="6.98017152"><ele></ele><time>2014-5-15T12:48:5Z</time></trkpt>
<trkpt lat="46.53162877" lon="6.98018108"><ele></ele><time>2014-5-15T12:48:8Z</time></trkpt>
<trkpt lat="46.53200378" lon="6.97994747"><ele></ele><time>2014-5-15T12:48:11Z</time></trkpt>
<trkpt lat="46.53204896" lon="6.97990648"><ele></ele><time>2014-5-15T12:48:14Z</time></trkpt>
<trkpt lat="46.53208424" lon="6.97987346"><ele></ele><time>2014-5-15T12:48:17Z</time></trkpt>
<trkpt lat="46.53198115" lon="6.97967682"><ele></ele><time>2014-5-15T12:48:20Z</time></trkpt>
<trkpt lat="46.53171628" lon="6.97978034"><ele></ele><time>2014-5-15T12:48:23Z</time></trkpt>
<trkpt lat="46.53147404" lon="6.97961622"><ele></ele><time>2014-5-15T12:48:26Z</time></trkpt>
<trkpt lat="46.53124530" lon="6.97935563"><ele></ele><time>2014-5-15T12:48:29Z</time></trkpt>
<trkpt lat="46.53105277" lon="6.97905078"><ele></ele><time>2014-5-15T12:48:32Z</time></trkpt>
<trkpt lat="46.53089502" lon="6.97867149"><ele></ele><time>2014-5-15T12:48:35Z</time></trkpt>
<trkpt lat="46.53071933" lon="6.97828090"><ele></ele><time>2014-5-15T12:48:38Z</time></trkpt>
<trkpt lat="46.53060475" lon="6.97802877"><ele></ele><time>2014-5-15T12:48:41Z</time></trkpt>
<trkpt lat="46.53055513" lon="6.97790162"><ele></ele><time>2014-5-15T12:48:44Z</time></trkpt>
<trkpt lat="46.53046503" lon="6.97750364"><ele></ele><time>2014-5-15T12:48:47Z</time></trkpt>
<trkpt lat="46.53045028" lon="6.97737113"><ele></ele><time>2014-5-15T12:48:50Z</time></trkpt>
<trkpt lat="46.53042647" lon="6.97684407"><ele></ele><time>2014-5-15T12:48:53Z</time></trkpt>
<trkpt lat="46.53041876" lon="6.97644794"><ele></ele><time>2014-5-15T12:48:56Z</time></trkpt>
<trkpt lat="46.53046796" lon="6.97611736"><ele></ele><time>2014-5-15T12:48:59Z</time></trkpt>
<trkpt lat="46.53078765" lon="6.97600957"><ele></ele><time>2014-5-15T12:49:2Z</time></trkpt>
<trkpt lat="46.53086225" lon="6.97606665"><ele></ele><time>2014-5-15T12:49:5Z</time></trkpt>
<trkpt lat="46.53108068" lon="6.97623068"><ele></ele><time>2014-5-15T12:49:8Z</time></trkpt>
<trkpt lat="46.53129785" lon="6.97630176"><ele></ele><time>2014-5-15T12:49:11Z</time></trkpt>
<trkpt lat="46.53134446" lon="6.97629715"><ele></ele><time>2014-5-15T12:49:14Z</time></trkpt>
<trkpt lat="46.53175517" lon="6.97619875"><ele></ele><time>2014-5-15T12:49:17Z</time></trkpt>
<trkpt lat="46.53200353" lon="6.97613714"><ele></ele><time>2014-5-15T12:49:20Z</time></trkpt>
<trkpt lat="46.53233889" lon="6.97604955"><ele></ele><time>2014-5-15T12:49:23Z</time></trkpt>
<trkpt lat="46.53241600" lon="6.97601812"><ele></ele><time>2014-5-15T12:49:26Z</time></trkpt>
<trkpt lat="46.53256754" lon="6.97591620"><ele></ele><time>2014-5-15T12:49:29Z</time></trkpt>
<trkpt lat="46.53272722" lon="6.97563205"><ele></ele><time>2014-5-15T12:49:32Z</time></trkpt>
<trkpt lat="46.53278338" lon="6.97539769"><ele></ele><time>2014-5-15T12:49:35Z</time></trkpt>
<trkpt lat="46.53286887" lon="6.97495546"><ele></ele><time>2014-5-15T12:49:38Z</time></trkpt>
<trkpt lat="46.53293693" lon="6.97464449"><ele></ele><time>2014-5-15T12:49:41Z</time></trkpt>
<trkpt lat="46.53301799" lon="6.97426748"><ele></ele><time>2014-5-15T12:49:44Z</time></trkpt>
<trkpt lat="46.53303542" lon="6.97419070"><ele></ele><time>2014-5-15T12:49:47Z</time></trkpt>
<trkpt lat="46.53318797" lon="6.97404720"><ele></ele><time>2014-5-15T12:49:50Z</time></trkpt>
<trkpt lat="46.53346223" lon="6.97424568"><ele></ele><time>2014-5-15T12:49:53Z</time></trkpt>
<trkpt lat="46.53363364" lon="6.97436890"><ele></ele><time>2014-5-15T12:49:56Z</time></trkpt>
<trkpt lat="46.53364923" lon="6.97438373"><ele></ele><time>2014-5-15T12:49:59Z</time></trkpt>
<trkpt lat="46.53369323" lon="6.97441877"><ele></ele><time>2014-5-15T12:50:2Z</time></trkpt>
<trkpt lat="46.53375182" lon="6.97442137"><ele></ele><time>2014-5-15T12:50:5Z</time></trkpt>
<trkpt lat="46.53391963" lon="6.97466838"><ele></ele><time>2014-5-15T12:50:8Z</time></trkpt>
<trkpt lat="46.53412356" lon="6.97490919"><ele></ele><time>2014-5-15T12:50:11Z</time></trkpt>
<trkpt lat="46.53434107" lon="6.97513592"><ele></ele><time>2014-5-15T12:50:14Z</time></trkpt>
<trkpt lat="46.53458767" lon="6.97540297"><ele></ele><time>2014-5-15T12:50:17Z</time></trkpt>
<trkpt lat="46.53485647" lon="6.97559006"><ele></ele><time>2014-5-15T12:50:20Z</time></trkpt>
<trkpt lat="46.53515998" lon="6.97577739"><ele></ele><time>2014-5-15T12:50:23Z</time></trkpt>
<trkpt lat="46.53542636" lon="6.97592424"><ele></ele><time>2014-5-15T12:50:26Z</time></trkpt>
<trkpt lat="46.53571210" lon="6.97625038"><ele></ele><time>2014-5-15T12:50:29Z</time></trkpt>
<trkpt lat="46.53602919" lon="6.97635817"><ele></ele><time>2014-5-15T12:50:32Z</time></trkpt>
<trkpt lat="46.53622432" lon="6.97641643"><ele></ele><time>2014-5-15T12:50:35Z</time></trkpt>
<trkpt lat="46.53647074" lon="6.97644870"><ele></ele><time>2014-5-15T12:50:38Z</time></trkpt>
<trkpt lat="46.53671047" lon="6.97648575"><ele></ele><time>2014-5-15T12:50:41Z</time></trkpt>
<trkpt lat="46.53696905" lon="6.97656948"><ele></ele><time>2014-5-15T12:50:44Z</time></trkpt>
<trkpt lat="46.53725462" lon="6.97667627"><ele></ele><time>2014-5-15T12:50:47Z</time></trkpt>
<trkpt lat="46.53765636" lon="6.97703208"><ele></ele><time>2014-5-15T12:50:50Z</time></trkpt>
<trkpt lat="46.53815316" lon="6.97779994"><ele></ele><time>2014-5-15T12:50:53Z</time></trkpt>
<trkpt lat="46.53863135" lon="6.97828325"><ele></ele><time>2014-5-15T12:50:56Z</time></trkpt>
<trkpt lat="46.53894207" lon="6.97840604"><ele></ele><time>2014-5-15T12:50:59Z</time></trkpt>
<trkpt lat="46.53913569" lon="6.97847494"><ele></ele><time>2014-5-15T12:51:2Z</time></trkpt>
<trkpt lat="46.53937323" lon="6.97858483"><ele></ele><time>2014-5-15T12:51:5Z</time></trkpt>
<trkpt lat="46.53946535" lon="6.97862439"><ele></ele><time>2014-5-15T12:51:8Z</time></trkpt>
<trkpt lat="46.53959342" lon="6.97868264"><ele></ele><time>2014-5-15T12:51:11Z</time></trkpt>
<trkpt lat="46.53985192" lon="6.97878524"><ele></ele><time>2014-5-15T12:51:14Z</time></trkpt>
<trkpt lat="46.53996860" lon="6.97882488"><ele></ele><time>2014-5-15T12:51:17Z</time></trkpt>
<trkpt lat="46.54024168" lon="6.97895447"><ele></ele><time>2014-5-15T12:51:20Z</time></trkpt>
<trkpt lat="46.54054804" lon="6.97907508"><ele></ele><time>2014-5-15T12:51:23Z</time></trkpt>
<trkpt lat="46.54065968" lon="6.97911892"><ele></ele><time>2014-5-15T12:51:26Z</time></trkpt>
<trkpt lat="46.54072708" lon="6.97916645"><ele></ele><time>2014-5-15T12:51:29Z</time></trkpt>
<trkpt lat="46.54109747" lon="6.97923467"><ele></ele><time>2014-5-15T12:51:32Z</time></trkpt>
<trkpt lat="46.54132454" lon="6.97936057"><ele></ele><time>2014-5-15T12:51:35Z</time></trkpt>
<trkpt lat="46.54157725" lon="6.97953148"><ele></ele><time>2014-5-15T12:51:38Z</time></trkpt>
<trkpt lat="46.54188638" lon="6.97971848"><ele></ele><time>2014-5-15T12:51:41Z</time></trkpt>
<trkpt lat="46.54236892" lon="6.97995828"><ele></ele><time>2014-5-15T12:51:44Z</time></trkpt>
<trkpt lat="46.54287033" lon="6.98022014"><ele></ele><time>2014-5-15T12:51:47Z</time></trkpt>
<trkpt lat="46.54335883" lon="6.98035349"><ele></ele><time>2014-5-15T12:51:50Z</time></trkpt>
<trkpt lat="46.54340174" lon="6.98034553"><ele></ele><time>2014-5-15T12:51:53Z</time></trkpt>
<trkpt lat="46.54386233" lon="6.98032684"><ele></ele><time>2014-5-15T12:51:56Z</time></trkpt>
<trkpt lat="46.54436256" lon="6.98029188"><ele></ele><time>2014-5-15T12:51:59Z</time></trkpt>
<trkpt lat="46.54482985" lon="6.98025618"><ele></ele><time>2014-5-15T12:52:2Z</time></trkpt>
<trkpt lat="46.54516965" lon="6.98028208"><ele></ele><time>2014-5-15T12:52:5Z</time></trkpt>
<trkpt lat="46.54561808" lon="6.98044209"><ele></ele><time>2014-5-15T12:52:8Z</time></trkpt>
<trkpt lat="46.54636038" lon="6.98092430"><ele></ele><time>2014-5-15T12:52:11Z</time></trkpt>
<trkpt lat="46.54659072" lon="6.98107257"><ele></ele><time>2014-5-15T12:52:14Z</time></trkpt>
<trkpt lat="46.54694360" lon="6.98154984"><ele></ele><time>2014-5-15T12:52:17Z</time></trkpt>
<trkpt lat="46.54704619" lon="6.98169837"><ele></ele><time>2014-5-15T12:52:20Z</time></trkpt>
<trkpt lat="46.54729304" lon="6.98179225"><ele></ele><time>2014-5-15T12:52:23Z</time></trkpt>
<trkpt lat="46.54801003" lon="6.98160642"><ele></ele><time>2014-5-15T12:52:26Z</time></trkpt>
<trkpt lat="46.54816987" lon="6.98158404"><ele></ele><time>2014-5-15T12:52:29Z</time></trkpt>
<trkpt lat="46.54859089" lon="6.98161815"><ele></ele><time>2014-5-15T12:52:32Z</time></trkpt>
<trkpt lat="46.54888703" lon="6.98183927"><ele></ele><time>2014-5-15T12:52:35Z</time></trkpt>
<trkpt lat="46.54937494" lon="6.98216566"><ele></ele><time>2014-5-15T12:52:38Z</time></trkpt>
<trkpt lat="46.54946655" lon="6.98217354"><ele></ele><time>2014-5-15T12:52:41Z</time></trkpt>
<trkpt lat="46.54989436" lon="6.98215694"><ele></ele><time>2014-5-15T12:52:44Z</time></trkpt>
<trkpt lat="46.55014188" lon="6.98217915"><ele></ele><time>2014-5-15T12:52:47Z</time></trkpt>
<trkpt lat="46.55048034" lon="6.98245224"><ele></ele><time>2014-5-15T12:52:50Z</time></trkpt>
<trkpt lat="46.55066206" lon="6.98268634"><ele></ele><time>2014-5-15T12:52:53Z</time></trkpt>
<trkpt lat="46.55096130" lon="6.98294803"><ele></ele><time>2014-5-15T12:52:56Z</time></trkpt>
<trkpt lat="46.55127503" lon="6.98298725"><ele></ele><time>2014-5-15T12:52:59Z</time></trkpt>
<trkpt lat="46.55161718" lon="6.98290645"><ele></ele><time>2014-5-15T12:53:2Z</time></trkpt>
<trkpt lat="46.55187903" lon="6.98281442"><ele></ele><time>2014-5-15T12:53:5Z</time></trkpt>
<trkpt lat="46.55207299" lon="6.98312648"><ele></ele><time>2014-5-15T12:53:8Z</time></trkpt>
<trkpt lat="46.55199604" lon="6.98347533"><ele></ele><time>2014-5-15T12:53:11Z</time></trkpt>
<trkpt lat="46.55192454" lon="6.98375906"><ele></ele><time>2014-5-15T12:53:14Z</time></trkpt>
<trkpt lat="46.55186964" lon="6.98408687"><ele></ele><time>2014-5-15T12:53:17Z</time></trkpt>
<trkpt lat="46.55188398" lon="6.98416114"><ele></ele><time>2014-5-15T12:53:20Z</time></trkpt>
<trkpt lat="46.55185615" lon="6.98434898"><ele></ele><time>2014-5-15T12:53:23Z</time></trkpt>
<trkpt lat="46.55186872" lon="6.98450807"><ele></ele><time>2014-5-15T12:53:26Z</time></trkpt>
<trkpt lat="46.55182279" lon="6.98483873"><ele></ele><time>2014-5-15T12:53:29Z</time></trkpt>
<trkpt lat="46.55181943" lon="6.98496857"><ele></ele><time>2014-5-15T12:53:32Z</time></trkpt>
<trkpt lat="46.55184357" lon="6.98525280"><ele></ele><time>2014-5-15T12:53:35Z</time></trkpt>
<trkpt lat="46.55182446" lon="6.98531005"><ele></ele><time>2014-5-15T12:53:38Z</time></trkpt>
<trkpt lat="46.55179613" lon="6.98541247"><ele></ele><time>2014-5-15T12:53:41Z</time></trkpt>
<trkpt lat="46.55177476" lon="6.98571749"><ele></ele><time>2014-5-15T12:53:44Z</time></trkpt>
<trkpt lat="46.55175498" lon="6.98585168"><ele></ele><time>2014-5-15T12:53:47Z</time></trkpt>
<trkpt lat="46.55176235" lon="6.98590583"><ele></ele><time>2014-5-15T12:53:50Z</time></trkpt>
<trkpt lat="46.55177727" lon="6.98599678"><ele></ele><time>2014-5-15T12:53:53Z</time></trkpt>
<trkpt lat="46.55179068" lon="6.98607850"><ele></ele><time>2014-5-15T12:53:56Z</time></trkpt>
<trkpt lat="46.55172640" lon="6.98633557"><ele></ele><time>2014-5-15T12:53:59Z</time></trkpt>
<trkpt lat="46.55164693" lon="6.98666448"><ele></ele><time>2014-5-15T12:54:2Z</time></trkpt>
<trkpt lat="46.55159405" lon="6.98696312"><ele></ele><time>2014-5-15T12:54:5Z</time></trkpt>
<trkpt lat="46.55157862" lon="6.98704116"><ele></ele><time>2014-5-15T12:54:8Z</time></trkpt>
<trkpt lat="46.55154602" lon="6.98721416"><ele></ele><time>2014-5-15T12:54:11Z</time></trkpt>
<trkpt lat="46.55131836" lon="6.98752924"><ele></ele><time>2014-5-15T12:54:14Z</time></trkpt>
<trkpt lat="46.55125575" lon="6.98783954"><ele></ele><time>2014-5-15T12:54:17Z</time></trkpt>
<trkpt lat="46.55124485" lon="6.98789176"><ele></ele><time>2014-5-15T12:54:20Z</time></trkpt>
<trkpt lat="46.55123589" lon="6.98797096"><ele></ele><time>2014-5-15T12:54:23Z</time></trkpt>
<trkpt lat="46.55118149" lon="6.98810172"><ele></ele><time>2014-5-15T12:54:26Z</time></trkpt>
<trkpt lat="46.55105090" lon="6.98837724"><ele></ele><time>2014-5-15T12:54:29Z</time></trkpt>
<trkpt lat="46.55099667" lon="6.98856876"><ele></ele><time>2014-5-15T12:54:32Z</time></trkpt>
<trkpt lat="46.55103279" lon="6.98883866"><ele></ele><time>2014-5-15T12:54:35Z</time></trkpt>
<trkpt lat="46.55102978" lon="6.98897034"><ele></ele><time>2014-5-15T12:54:38Z</time></trkpt>
<trkpt lat="46.55101435" lon="6.98905827"><ele></ele><time>2014-5-15T12:54:41Z</time></trkpt>
<trkpt lat="46.55099667" lon="6.98916363"><ele></ele><time>2014-5-15T12:54:44Z</time></trkpt>
<trkpt lat="46.55084487" lon="6.98929757"><ele></ele><time>2014-5-15T12:54:47Z</time></trkpt>
<trkpt lat="46.55069173" lon="6.98936907"><ele></ele><time>2014-5-15T12:54:50Z</time></trkpt>
<trkpt lat="46.55051068" lon="6.98953855"><ele></ele><time>2014-5-15T12:54:53Z</time></trkpt>
<trkpt lat="46.55035419" lon="6.98972337"><ele></ele><time>2014-5-15T12:54:56Z</time></trkpt>
<trkpt lat="46.55028219" lon="6.98990576"><ele></ele><time>2014-5-15T12:54:59Z</time></trkpt>
<trkpt lat="46.55028488" lon="6.99005554"><ele></ele><time>2014-5-15T12:55:2Z</time></trkpt>
<trkpt lat="46.55038630" lon="6.99029367"><ele></ele><time>2014-5-15T12:55:5Z</time></trkpt>
<trkpt lat="46.55039292" lon="6.99042996"><ele></ele><time>2014-5-15T12:55:8Z</time></trkpt>
<trkpt lat="46.55039392" lon="6.99038286"><ele></ele><time>2014-5-15T12:55:11Z</time></trkpt>
<trkpt lat="46.55037456" lon="6.99051320"><ele></ele><time>2014-5-15T12:55:14Z</time></trkpt>
<trkpt lat="46.55036408" lon="6.99054815"><ele></ele><time>2014-5-15T12:55:17Z</time></trkpt>
<trkpt lat="46.55027515" lon="6.99079868"><ele></ele><time>2014-5-15T12:55:20Z</time></trkpt>
<trkpt lat="46.55029418" lon="6.99088083"><ele></ele><time>2014-5-15T12:55:23Z</time></trkpt>
<trkpt lat="46.55028605" lon="6.99096045"><ele></ele><time>2014-5-15T12:55:26Z</time></trkpt>
<trkpt lat="46.55027599" lon="6.99108995"><ele></ele><time>2014-5-15T12:55:29Z</time></trkpt>
<trkpt lat="46.55027599" lon="6.99111720"><ele></ele><time>2014-5-15T12:55:32Z</time></trkpt>
<trkpt lat="46.55038646" lon="6.99135030"><ele></ele><time>2014-5-15T12:55:35Z</time></trkpt>
<trkpt lat="46.55052125" lon="6.99153084"><ele></ele><time>2014-5-15T12:55:38Z</time></trkpt>
<trkpt lat="46.55069693" lon="6.99178213"><ele></ele><time>2014-5-15T12:55:41Z</time></trkpt>
<trkpt lat="46.55072375" lon="6.99203057"><ele></ele><time>2014-5-15T12:55:44Z</time></trkpt>
<trkpt lat="46.55066106" lon="6.99232394"><ele></ele><time>2014-5-15T12:55:47Z</time></trkpt>
<trkpt lat="46.55053097" lon="6.99255092"><ele></ele><time>2014-5-15T12:55:50Z</time></trkpt>
<trkpt lat="46.55051127" lon="6.99258327"><ele></ele><time>2014-5-15T12:55:53Z</time></trkpt>
<trkpt lat="46.55035386" lon="6.99277690"><ele></ele><time>2014-5-15T12:55:56Z</time></trkpt>
<trkpt lat="46.55017692" lon="6.99297530"><ele></ele><time>2014-5-15T12:55:59Z</time></trkpt>
<trkpt lat="46.55014632" lon="6.99299114"><ele></ele><time>2014-5-15T12:56:2Z</time></trkpt>
<trkpt lat="46.55000173" lon="6.99298904"><ele></ele><time>2014-5-15T12:56:5Z</time></trkpt>
<trkpt lat="46.54979152" lon="6.99292886"><ele></ele><time>2014-5-15T12:56:8Z</time></trkpt>
<trkpt lat="46.54960527" lon="6.99280607"><ele></ele><time>2014-5-15T12:56:11Z</time></trkpt>
<trkpt lat="46.54938768" lon="6.99254966"><ele></ele><time>2014-5-15T12:56:14Z</time></trkpt>
<trkpt lat="46.54919506" lon="6.99257498"><ele></ele><time>2014-5-15T12:56:17Z</time></trkpt>
<trkpt lat="46.54911485" lon="6.99287354"><ele></ele><time>2014-5-15T12:56:20Z</time></trkpt>
<trkpt lat="46.54913924" lon="6.99321577"><ele></ele><time>2014-5-15T12:56:23Z</time></trkpt>
<trkpt lat="46.54901812" lon="6.99352029"><ele></ele><time>2014-5-15T12:56:26Z</time></trkpt>
<trkpt lat="46.54886490" lon="6.99368575"><ele></ele><time>2014-5-15T12:56:29Z</time></trkpt>
<trkpt lat="46.54865200" lon="6.99383997"><ele></ele><time>2014-5-15T12:56:32Z</time></trkpt>
<trkpt lat="46.54846148" lon="6.99391164"><ele></ele><time>2014-5-15T12:56:35Z</time></trkpt>
<trkpt lat="46.54842745" lon="6.99392103"><ele></ele><time>2014-5-15T12:56:38Z</time></trkpt>
<trkpt lat="46.54834908" lon="6.99393318"><ele></ele><time>2014-5-15T12:56:41Z</time></trkpt>
<trkpt lat="46.54820600" lon="6.99398875"><ele></ele><time>2014-5-15T12:56:44Z</time></trkpt>
<trkpt lat="46.54817507" lon="6.99406394"><ele></ele><time>2014-5-15T12:56:47Z</time></trkpt>
<trkpt lat="46.54798949" lon="6.99448429"><ele></ele><time>2014-5-15T12:56:50Z</time></trkpt>
<trkpt lat="46.54771205" lon="6.99486475"><ele></ele><time>2014-5-15T12:56:53Z</time></trkpt>
<trkpt lat="46.54765799" lon="6.99493775"><ele></ele><time>2014-5-15T12:56:56Z</time></trkpt>
<trkpt lat="46.54750183" lon="6.99516029"><ele></ele><time>2014-5-15T12:56:59Z</time></trkpt>
<trkpt lat="46.54725406" lon="6.99530714"><ele></ele><time>2014-5-15T12:57:2Z</time></trkpt>
<trkpt lat="46.54694527" lon="6.99527328"><ele></ele><time>2014-5-15T12:57:5Z</time></trkpt>
<trkpt lat="46.54667957" lon="6.99504169"><ele></ele><time>2014-5-15T12:57:8Z</time></trkpt>
<trkpt lat="46.54666750" lon="6.99501897"><ele></ele><time>2014-5-15T12:57:11Z</time></trkpt>
<trkpt lat="46.54664763" lon="6.99482543"><ele></ele><time>2014-5-15T12:57:14Z</time></trkpt>
<trkpt lat="46.54663984" lon="6.99445764"><ele></ele><time>2014-5-15T12:57:17Z</time></trkpt>
<trkpt lat="46.54662978" lon="6.99442495"><ele></ele><time>2014-5-15T12:57:20Z</time></trkpt>
<trkpt lat="46.54662232" lon="6.99424365"><ele></ele><time>2014-5-15T12:57:23Z</time></trkpt>
<trkpt lat="46.54661754" lon="6.99407944"><ele></ele><time>2014-5-15T12:57:26Z</time></trkpt>
<trkpt lat="46.54660648" lon="6.99396218"><ele></ele><time>2014-5-15T12:57:29Z</time></trkpt>
<trkpt lat="46.54655853" lon="6.99384023"><ele></ele><time>2014-5-15T12:57:32Z</time></trkpt>
<trkpt lat="46.54652006" lon="6.99378088"><ele></ele><time>2014-5-15T12:57:35Z</time></trkpt>
<trkpt lat="46.54643959" lon="6.99364359"><ele></ele><time>2014-5-15T12:57:38Z</time></trkpt>
<trkpt lat="46.54645200" lon="6.99370502"><ele></ele><time>2014-5-15T12:57:41Z</time></trkpt>
<trkpt lat="46.54648938" lon="6.99373738"><ele></ele><time>2014-5-15T12:57:44Z</time></trkpt>
<trkpt lat="46.54639416" lon="6.99360260"><ele></ele><time>2014-5-15T12:57:47Z</time></trkpt>
<trkpt lat="46.54624974" lon="6.99335349"><ele></ele><time>2014-5-15T12:57:50Z</time></trkpt>
<trkpt lat="46.54603165" lon="6.99312047"><ele></ele><time>2014-5-15T12:57:53Z</time></trkpt>
<trkpt lat="46.54589393" lon="6.99301729"><ele></ele><time>2014-5-15T12:57:56Z</time></trkpt>
<trkpt lat="46.54575664" lon="6.99291889"><ele></ele><time>2014-5-15T12:57:59Z</time></trkpt>
<trkpt lat="46.54556528" lon="6.99281788"><ele></ele><time>2014-5-15T12:58:2Z</time></trkpt>
<trkpt lat="46.54534123" lon="6.99273474"><ele></ele><time>2014-5-15T12:58:5Z</time></trkpt>
<trkpt lat="46.54519170" lon="6.99264069"><ele></ele><time>2014-5-15T12:58:8Z</time></trkpt>
<trkpt lat="46.54510888" lon="6.99251547"><ele></ele><time>2014-5-15T12:58:11Z</time></trkpt>
<trkpt lat="46.54508248" lon="6.99241874"><ele></ele><time>2014-5-15T12:58:14Z</time></trkpt>
<trkpt lat="46.54513093" lon="6.99214918"><ele></ele><time>2014-5-15T12:58:17Z</time></trkpt>
<trkpt lat="46.54530259" lon="6.99193468"><ele></ele><time>2014-5-15T12:58:20Z</time></trkpt>
<trkpt lat="46.54553317" lon="6.99172857"><ele></ele><time>2014-5-15T12:58:23Z</time></trkpt>
<trkpt lat="46.54578689" lon="6.99152213"><ele></ele><time>2014-5-15T12:58:26Z</time></trkpt>
<trkpt lat="46.54584129" lon="6.99147183"><ele></ele><time>2014-5-15T12:58:29Z</time></trkpt>
<trkpt lat="46.54602737" lon="6.99118056"><ele></ele><time>2014-5-15T12:58:32Z</time></trkpt>
<trkpt lat="46.54602838" lon="6.99064152"><ele></ele><time>2014-5-15T12:58:35Z</time></trkpt>
<trkpt lat="46.54604489" lon="6.99058972"><ele></ele><time>2014-5-15T12:58:38Z</time></trkpt>
<trkpt lat="46.54612837" lon="6.99044824"><ele></ele><time>2014-5-15T12:58:41Z</time></trkpt>
<trkpt lat="46.54634002" lon="6.99009326"><ele></ele><time>2014-5-15T12:58:44Z</time></trkpt>
<trkpt lat="46.54637472" lon="6.99002068"><ele></ele><time>2014-5-15T12:58:47Z</time></trkpt>
<trkpt lat="46.54648947" lon="6.98983443"><ele></ele><time>2014-5-15T12:58:50Z</time></trkpt>
<trkpt lat="46.54701409" lon="6.98911903"><ele></ele><time>2014-5-15T12:58:53Z</time></trkpt>
<trkpt lat="46.54708684" lon="6.98896456"><ele></ele><time>2014-5-15T12:58:56Z</time></trkpt>
<trkpt lat="46.54716622" lon="6.98867136"><ele></ele><time>2014-5-15T12:58:59Z</time></trkpt>
<trkpt lat="46.54715013" lon="6.98843105"><ele></ele><time>2014-5-15T12:59:2Z</time></trkpt>
<trkpt lat="46.54706748" lon="6.98833097"><ele></ele><time>2014-5-15T12:59:5Z</time></trkpt>
<trkpt lat="46.54691108" lon="6.98818680"><ele></ele><time>2014-5-15T12:59:8Z</time></trkpt>
<trkpt lat="46.54665300" lon="6.98797423"><ele></ele><time>2014-5-15T12:59:11Z</time></trkpt>
<trkpt lat="46.54651872" lon="6.98784867"><ele></ele><time>2014-5-15T12:59:14Z</time></trkpt>
<trkpt lat="46.54637262" lon="6.98774717"><ele></ele><time>2014-5-15T12:59:17Z</time></trkpt>
<trkpt lat="46.54621429" lon="6.98764449"><ele></ele><time>2014-5-15T12:59:20Z</time></trkpt>
<trkpt lat="46.54593014" lon="6.98734324"><ele></ele><time>2014-5-15T12:59:23Z</time></trkpt>
<trkpt lat="46.54586778" lon="6.98726865"><ele></ele><time>2014-5-15T12:59:26Z</time></trkpt>
<trkpt lat="46.54566695" lon="6.98703127"><ele></ele><time>2014-5-15T12:59:29Z</time></trkpt>
<trkpt lat="46.54545832" lon="6.98679054"><ele></ele><time>2014-5-15T12:59:32Z</time></trkpt>
<trkpt lat="46.54516186" lon="6.98650539"><ele></ele><time>2014-5-15T12:59:35Z</time></trkpt>
<trkpt lat="46.54492498" lon="6.98630037"><ele></ele><time>2014-5-15T12:59:38Z</time></trkpt>
<trkpt lat="46.54470345" lon="6.98611798"><ele></ele><time>2014-5-15T12:59:41Z</time></trkpt>
<trkpt lat="46.54442274" lon="6.98589167"><ele></ele><time>2014-5-15T12:59:44Z</time></trkpt>
<trkpt lat="46.54417715" lon="6.98570944"><ele></ele><time>2014-5-15T12:59:47Z</time></trkpt>
<trkpt lat="46.54398839" lon="6.98566209"><ele></ele><time>2014-5-15T12:59:50Z</time></trkpt>
<trkpt lat="46.54378756" lon="6.98553703"><ele></ele><time>2014-5-15T12:59:53Z</time></trkpt>
<trkpt lat="46.54378756" lon="6.98557500"><ele></ele><time>2014-5-15T12:59:56Z</time></trkpt>
<trkpt lat="46.54377968" lon="6.98557894"><ele></ele><time>2014-5-15T12:59:59Z</time></trkpt>
<trkpt lat="46.54380147" lon="6.98558229"><ele></ele><time>2014-5-15T13:0:2Z</time></trkpt>
<trkpt lat="46.54382017" lon="6.98562403"><ele></ele><time>2014-5-15T13:0:5Z</time></trkpt>
<trkpt lat="46.54380860" lon="6.98562512"><ele></ele><time>2014-5-15T13:0:8Z</time></trkpt>
<trkpt lat="46.54380935" lon="6.98561557"><ele></ele><time>2014-5-15T13:0:11Z</time></trkpt>
<trkpt lat="46.54381019" lon="6.98560132"><ele></ele><time>2014-5-15T13:0:14Z</time></trkpt>
<trkpt lat="46.54379318" lon="6.98562026"><ele></ele><time>2014-5-15T13:0:17Z</time></trkpt>
<trkpt lat="46.54376627" lon="6.98562487"><ele></ele><time>2014-5-15T13:0:20Z</time></trkpt>
<trkpt lat="46.54375965" lon="6.98563308"><ele></ele><time>2014-5-15T13:0:23Z</time></trkpt>
<trkpt lat="46.54377046" lon="6.98565622"><ele></ele><time>2014-5-15T13:0:26Z</time></trkpt>
<trkpt lat="46.54369419" lon="6.98542102"><ele></ele><time>2014-5-15T13:0:29Z</time></trkpt>
<trkpt lat="46.54365613" lon="6.98529596"><ele></ele><time>2014-5-15T13:0:32Z</time></trkpt>
<trkpt lat="46.54350517" lon="6.98502883"><ele></ele><time>2014-5-15T13:0:35Z</time></trkpt>
<trkpt lat="46.54316654" lon="6.98464352"><ele></ele><time>2014-5-15T13:0:38Z</time></trkpt>
<trkpt lat="46.54289589" lon="6.98448954"><ele></ele><time>2014-5-15T13:0:41Z</time></trkpt>
<trkpt lat="46.54284434" lon="6.98449533"><ele></ele><time>2014-5-15T13:0:44Z</time></trkpt>
<trkpt lat="46.54272943" lon="6.98452265"><ele></ele><time>2014-5-15T13:0:47Z</time></trkpt>
<trkpt lat="46.54267587" lon="6.98449147"><ele></ele><time>2014-5-15T13:0:50Z</time></trkpt>
<trkpt lat="46.54270705" lon="6.98447018"><ele></ele><time>2014-5-15T13:0:53Z</time></trkpt>
<trkpt lat="46.54268576" lon="6.98450304"><ele></ele><time>2014-5-15T13:0:56Z</time></trkpt>
<trkpt lat="46.54267830" lon="6.98447119"><ele></ele><time>2014-5-15T13:0:59Z</time></trkpt>
<trkpt lat="46.54257503" lon="6.98415963"><ele></ele><time>2014-5-15T13:1:2Z</time></trkpt>
<trkpt lat="46.54254192" lon="6.98405603"><ele></ele><time>2014-5-15T13:1:5Z</time></trkpt>
<trkpt lat="46.54251133" lon="6.98399484"><ele></ele><time>2014-5-15T13:1:8Z</time></trkpt>
<trkpt lat="46.54238057" lon="6.98377205"><ele></ele><time>2014-5-15T13:1:11Z</time></trkpt>
<trkpt lat="46.54227639" lon="6.98344499"><ele></ele><time>2014-5-15T13:1:14Z</time></trkpt>
<trkpt lat="46.54214823" lon="6.98320158"><ele></ele><time>2014-5-15T13:1:17Z</time></trkpt>
<trkpt lat="46.54208084" lon="6.98309722"><ele></ele><time>2014-5-15T13:1:20Z</time></trkpt>
<trkpt lat="46.54202828" lon="6.98300653"><ele></ele><time>2014-5-15T13:1:23Z</time></trkpt>
<trkpt lat="46.54198134" lon="6.98293143"><ele></ele><time>2014-5-15T13:1:26Z</time></trkpt>
<trkpt lat="46.54186215" lon="6.98270252"><ele></ele><time>2014-5-15T13:1:29Z</time></trkpt>
<trkpt lat="46.54183768" lon="6.98265198"><ele></ele><time>2014-5-15T13:1:32Z</time></trkpt>
<trkpt lat="46.54164934" lon="6.98231905"><ele></ele><time>2014-5-15T13:1:35Z</time></trkpt>
<trkpt lat="46.54161732" lon="6.98226708"><ele></ele><time>2014-5-15T13:1:38Z</time></trkpt>
<trkpt lat="46.54152386" lon="6.98211897"><ele></ele><time>2014-5-15T13:1:41Z</time></trkpt>
<trkpt lat="46.54152193" lon="6.98213004"><ele></ele><time>2014-5-15T13:1:44Z</time></trkpt>
<trkpt lat="46.54153903" lon="6.98215594"><ele></ele><time>2014-5-15T13:1:47Z</time></trkpt>
<trkpt lat="46.54147516" lon="6.98205208"><ele></ele><time>2014-5-15T13:1:50Z</time></trkpt>
<trkpt lat="46.54128246" lon="6.98170734"><ele></ele><time>2014-5-15T13:1:53Z</time></trkpt>
<trkpt lat="46.54122278" lon="6.98160298"><ele></ele><time>2014-5-15T13:1:56Z</time></trkpt>
<trkpt lat="46.54108062" lon="6.98138363"><ele></ele><time>2014-5-15T13:1:59Z</time></trkpt>
<trkpt lat="46.54100418" lon="6.98119202"><ele></ele><time>2014-5-15T13:2:2Z</time></trkpt>
<trkpt lat="46.54093277" lon="6.98100426"><ele></ele><time>2014-5-15T13:2:5Z</time></trkpt>
<trkpt lat="46.54075608" lon="6.98075155"><ele></ele><time>2014-5-15T13:2:8Z</time></trkpt>
<trkpt lat="46.54063596" lon="6.98060034"><ele></ele><time>2014-5-15T13:2:11Z</time></trkpt>
<trkpt lat="46.54044569" lon="6.98042792"><ele></ele><time>2014-5-15T13:2:14Z</time></trkpt>
<trkpt lat="46.54025945" lon="6.98028116"><ele></ele><time>2014-5-15T13:2:17Z</time></trkpt>
<trkpt lat="46.53998142" lon="6.98019222"><ele></ele><time>2014-5-15T13:2:20Z</time></trkpt>
<trkpt lat="46.53986533" lon="6.98016238"><ele></ele><time>2014-5-15T13:2:23Z</time></trkpt>
<trkpt lat="46.53969157" lon="6.98009717"><ele></ele><time>2014-5-15T13:2:26Z</time></trkpt>
<trkpt lat="46.53957054" lon="6.98006147"><ele></ele><time>2014-5-15T13:2:29Z</time></trkpt>
<trkpt lat="46.53936393" lon="6.97996683"><ele></ele><time>2014-5-15T13:2:32Z</time></trkpt>
<trkpt lat="46.53923853" lon="6.97990657"><ele></ele><time>2014-5-15T13:2:35Z</time></trkpt>
<trkpt lat="46.53923769" lon="6.97988813"><ele></ele><time>2014-5-15T13:2:38Z</time></trkpt>
<trkpt lat="46.53912077" lon="6.97982736"><ele></ele><time>2014-5-15T13:2:41Z</time></trkpt>
<trkpt lat="46.53907852" lon="6.97981093"><ele></ele><time>2014-5-15T13:2:44Z</time></trkpt>
<trkpt lat="46.53907349" lon="6.97980758"><ele></ele><time>2014-5-15T13:2:47Z</time></trkpt>
<trkpt lat="46.53903125" lon="6.97976760"><ele></ele><time>2014-5-15T13:2:50Z</time></trkpt>
<trkpt lat="46.53904927" lon="6.97977833"><ele></ele><time>2014-5-15T13:2:53Z</time></trkpt>
<trkpt lat="46.53903485" lon="6.97977824"><ele></ele><time>2014-5-15T13:2:56Z</time></trkpt>
<trkpt lat="46.53903980" lon="6.97977447"><ele></ele><time>2014-5-15T13:2:59Z</time></trkpt>
<trkpt lat="46.53905380" lon="6.97976366"><ele></ele><time>2014-5-15T13:3:2Z</time></trkpt>
<trkpt lat="46.53905648" lon="6.97976450"><ele></ele><time>2014-5-15T13:3:5Z</time></trkpt>
<trkpt lat="46.53905748" lon="6.97977824"><ele></ele><time>2014-5-15T13:3:8Z</time></trkpt>
<trkpt lat="46.53902588" lon="6.97977179"><ele></ele><time>2014-5-15T13:3:11Z</time></trkpt>
<trkpt lat="46.53884458" lon="6.97967825"><ele></ele><time>2014-5-15T13:3:14Z</time></trkpt>
<trkpt lat="46.53862439" lon="6.97955587"><ele></ele><time>2014-5-15T13:3:17Z</time></trkpt>
<trkpt lat="46.53842255" lon="6.97942754"><ele></ele><time>2014-5-15T13:3:20Z</time></trkpt>
<trkpt lat="46.53829180" lon="6.97934967"><ele></ele><time>2014-5-15T13:3:23Z</time></trkpt>
<trkpt lat="46.53817068" lon="6.97930106"><ele></ele><time>2014-5-15T13:3:26Z</time></trkpt>
<trkpt lat="46.53798083" lon="6.97920400"><ele></ele><time>2014-5-15T13:3:29Z</time></trkpt>
<trkpt lat="46.53780305" lon="6.97902647"><ele></ele><time>2014-5-15T13:3:32Z</time></trkpt>
<trkpt lat="46.53776357" lon="6.97898883"><ele></ele><time>2014-5-15T13:3:35Z</time></trkpt>
<trkpt lat="46.53753885" lon="6.97892463"><ele></ele><time>2014-5-15T13:3:38Z</time></trkpt>
<trkpt lat="46.53749015" lon="6.97893385"><ele></ele><time>2014-5-15T13:3:41Z</time></trkpt>
<trkpt lat="46.53738580" lon="6.97896536"><ele></ele><time>2014-5-15T13:3:44Z</time></trkpt>
<trkpt lat="46.53714666" lon="6.97911649"><ele></ele><time>2014-5-15T13:3:47Z</time></trkpt>
<trkpt lat="46.53698472" lon="6.97933123"><ele></ele><time>2014-5-15T13:3:50Z</time></trkpt>
<trkpt lat="46.53691004" lon="6.97940558"><ele></ele><time>2014-5-15T13:3:53Z</time></trkpt>
<trkpt lat="46.53674006" lon="6.97925798"><ele></ele><time>2014-5-15T13:3:56Z</time></trkpt>
<trkpt lat="46.53672279" lon="6.97898414"><ele></ele><time>2014-5-15T13:3:59Z</time></trkpt>
<trkpt lat="46.53687165" lon="6.97872673"><ele></ele><time>2014-5-15T13:4:2Z</time></trkpt>
<trkpt lat="46.53690727" lon="6.97866923"><ele></ele><time>2014-5-15T13:4:5Z</time></trkpt>
<trkpt lat="46.53702705" lon="6.97848039"><ele></ele><time>2014-5-15T13:4:8Z</time></trkpt>
<trkpt lat="46.53706946" lon="6.97841509"><ele></ele><time>2014-5-15T13:4:11Z</time></trkpt>
<trkpt lat="46.53727063" lon="6.97809046"><ele></ele><time>2014-5-15T13:4:14Z</time></trkpt>
<trkpt lat="46.53731078" lon="6.97802936"><ele></ele><time>2014-5-15T13:4:17Z</time></trkpt>
<trkpt lat="46.53760683" lon="6.97785082"><ele></ele><time>2014-5-15T13:4:20Z</time></trkpt>
<trkpt lat="46.53796080" lon="6.97785200"><ele></ele><time>2014-5-15T13:4:23Z</time></trkpt>
<trkpt lat="46.53809650" lon="6.97781696"><ele></ele><time>2014-5-15T13:4:26Z</time></trkpt>
<trkpt lat="46.53814486" lon="6.97770590"><ele></ele><time>2014-5-15T13:4:29Z</time></trkpt>
<trkpt lat="46.53809088" lon="6.97751789"><ele></ele><time>2014-5-15T13:4:32Z</time></trkpt>
<trkpt lat="46.53751488" lon="6.97680250"><ele></ele><time>2014-5-15T13:4:35Z</time></trkpt>
<trkpt lat="46.53708472" lon="6.97655599"><ele></ele><time>2014-5-15T13:4:38Z</time></trkpt>
<trkpt lat="46.53698464" lon="6.97653377"><ele></ele><time>2014-5-15T13:4:41Z</time></trkpt>
<trkpt lat="46.53649245" lon="6.97642447"><ele></ele><time>2014-5-15T13:4:44Z</time></trkpt>
<trkpt lat="46.53604193" lon="6.97632750"><ele></ele><time>2014-5-15T13:4:47Z</time></trkpt>
<trkpt lat="46.53581293" lon="6.97627000"><ele></ele><time>2014-5-15T13:4:50Z</time></trkpt>
<trkpt lat="46.53555418" lon="6.97605710"><ele></ele><time>2014-5-15T13:4:53Z</time></trkpt>
<trkpt lat="46.53505303" lon="6.97565225"><ele></ele><time>2014-5-15T13:4:56Z</time></trkpt>
<trkpt lat="46.53463284" lon="6.97540062"><ele></ele><time>2014-5-15T13:4:59Z</time></trkpt>
<trkpt lat="46.53455489" lon="6.97534229"><ele></ele><time>2014-5-15T13:5:2Z</time></trkpt>
<trkpt lat="46.53420093" lon="6.97494959"><ele></ele><time>2014-5-15T13:5:5Z</time></trkpt>
<trkpt lat="46.53382952" lon="6.97451290"><ele></ele><time>2014-5-15T13:5:8Z</time></trkpt>
<trkpt lat="46.53374537" lon="6.97442958"><ele></ele><time>2014-5-15T13:5:11Z</time></trkpt>
<trkpt lat="46.53356164" lon="6.97427309"><ele></ele><time>2014-5-15T13:5:14Z</time></trkpt>
<trkpt lat="46.53324162" lon="6.97404368"><ele></ele><time>2014-5-15T13:5:17Z</time></trkpt>
<trkpt lat="46.53312804" lon="6.97396413"><ele></ele><time>2014-5-15T13:5:20Z</time></trkpt>
<trkpt lat="46.53290693" lon="6.97380865"><ele></ele><time>2014-5-15T13:5:23Z</time></trkpt>
<trkpt lat="46.53280400" lon="6.97373246"><ele></ele><time>2014-5-15T13:5:26Z</time></trkpt>
<trkpt lat="46.53244274" lon="6.97317397"><ele></ele><time>2014-5-15T13:5:29Z</time></trkpt>
<trkpt lat="46.53236143" lon="6.97291237"><ele></ele><time>2014-5-15T13:5:32Z</time></trkpt>
<trkpt lat="46.53210796" lon="6.97223855"><ele></ele><time>2014-5-15T13:5:35Z</time></trkpt>
<trkpt lat="46.53179104" lon="6.97189556"><ele></ele><time>2014-5-15T13:5:38Z</time></trkpt>
<trkpt lat="46.53153045" lon="6.97146943"><ele></ele><time>2014-5-15T13:5:41Z</time></trkpt>
<trkpt lat="46.53131738" lon="6.97085545"><ele></ele><time>2014-5-15T13:5:44Z</time></trkpt>
<trkpt lat="46.53098563" lon="6.97036729"><ele></ele><time>2014-5-15T13:5:47Z</time></trkpt>
<trkpt lat="46.53053326" lon="6.96974435"><ele></ele><time>2014-5-15T13:5:50Z</time></trkpt>
<trkpt lat="46.53015783" lon="6.96956020"><ele></ele><time>2014-5-15T13:5:53Z</time></trkpt>
<trkpt lat="46.52967646" lon="6.96948485"><ele></ele><time>2014-5-15T13:5:56Z</time></trkpt>
<trkpt lat="46.52922467" lon="6.96928837"><ele></ele><time>2014-5-15T13:5:59Z</time></trkpt>
<trkpt lat="46.52850945" lon="6.96827282"><ele></ele><time>2014-5-15T13:6:2Z</time></trkpt>
<trkpt lat="46.52778449" lon="6.96714864"><ele></ele><time>2014-5-15T13:6:5Z</time></trkpt>
<trkpt lat="46.52759045" lon="6.96682124"><ele></ele><time>2014-5-15T13:6:8Z</time></trkpt>
<trkpt lat="46.52697824" lon="6.96537084"><ele></ele><time>2014-5-15T13:6:11Z</time></trkpt>
<trkpt lat="46.52687933" lon="6.96517328"><ele></ele><time>2014-5-15T13:6:14Z</time></trkpt>
<trkpt lat="46.52617710" lon="6.96389822"><ele></ele><time>2014-5-15T13:6:17Z</time></trkpt>
<trkpt lat="46.52598708" lon="6.96357359"><ele></ele><time>2014-5-15T13:6:20Z</time></trkpt>
<trkpt lat="46.52578667" lon="6.96326715"><ele></ele><time>2014-5-15T13:6:23Z</time></trkpt>
<trkpt lat="46.52565633" lon="6.96244748"><ele></ele><time>2014-5-15T13:6:26Z</time></trkpt>
<trkpt lat="46.52549246" lon="6.96159253"><ele></ele><time>2014-5-15T13:6:29Z</time></trkpt>
<trkpt lat="46.52567653" lon="6.96065853"><ele></ele><time>2014-5-15T13:6:32Z</time></trkpt>
<trkpt lat="46.52569698" lon="6.96057790"><ele></ele><time>2014-5-15T13:6:35Z</time></trkpt>
<trkpt lat="46.52602748" lon="6.95961214"><ele></ele><time>2014-5-15T13:6:38Z</time></trkpt>
<trkpt lat="46.52621498" lon="6.95925498"><ele></ele><time>2014-5-15T13:6:41Z</time></trkpt>
<trkpt lat="46.52631825" lon="6.95907259"><ele></ele><time>2014-5-15T13:6:44Z</time></trkpt>
<trkpt lat="46.52675377" lon="6.95797356"><ele></ele><time>2014-5-15T13:6:47Z</time></trkpt>
<trkpt lat="46.52710204" lon="6.95722832"><ele></ele><time>2014-5-15T13:6:50Z</time></trkpt>
<trkpt lat="46.52715099" lon="6.95714065"><ele></ele><time>2014-5-15T13:6:53Z</time></trkpt>
<trkpt lat="46.52726859" lon="6.95691308"><ele></ele><time>2014-5-15T13:6:56Z</time></trkpt>
<trkpt lat="46.52733497" lon="6.95675944"><ele></ele><time>2014-5-15T13:6:59Z</time></trkpt>
<trkpt lat="46.52736800" lon="6.95627245"><ele></ele><time>2014-5-15T13:7:2Z</time></trkpt>
<trkpt lat="46.52722576" lon="6.95505800"><ele></ele><time>2014-5-15T13:7:5Z</time></trkpt>
<trkpt lat="46.52722006" lon="6.95495339"><ele></ele><time>2014-5-15T13:7:8Z</time></trkpt>
<trkpt lat="46.52725115" lon="6.95463882"><ele></ele><time>2014-5-15T13:7:11Z</time></trkpt>
<trkpt lat="46.52764678" lon="6.95328129"><ele></ele><time>2014-5-15T13:7:14Z</time></trkpt>
<trkpt lat="46.52783068" lon="6.95257285"><ele></ele><time>2014-5-15T13:7:17Z</time></trkpt>
<trkpt lat="46.52795205" lon="6.95196122"><ele></ele><time>2014-5-15T13:7:20Z</time></trkpt>
<trkpt lat="46.52799295" lon="6.95168093"><ele></ele><time>2014-5-15T13:7:23Z</time></trkpt>
<trkpt lat="46.52808113" lon="6.95109956"><ele></ele><time>2014-5-15T13:7:26Z</time></trkpt>
<trkpt lat="46.52814299" lon="6.95065264"><ele></ele><time>2014-5-15T13:7:29Z</time></trkpt>
<trkpt lat="46.52825187" lon="6.94988729"><ele></ele><time>2014-5-15T13:7:32Z</time></trkpt>
<trkpt lat="46.52834449" lon="6.94929536"><ele></ele><time>2014-5-15T13:7:35Z</time></trkpt>
<trkpt lat="46.52858304" lon="6.94881013"><ele></ele><time>2014-5-15T13:7:38Z</time></trkpt>
<trkpt lat="46.52888546" lon="6.94842112"><ele></ele><time>2014-5-15T13:7:41Z</time></trkpt>
<trkpt lat="46.52900733" lon="6.94827184"><ele></ele><time>2014-5-15T13:7:44Z</time></trkpt>
<trkpt lat="46.52917556" lon="6.94806112"><ele></ele><time>2014-5-15T13:7:47Z</time></trkpt>
<trkpt lat="46.52921998" lon="6.94800588"><ele></ele><time>2014-5-15T13:7:50Z</time></trkpt>
<trkpt lat="46.52937245" lon="6.94783020"><ele></ele><time>2014-5-15T13:7:53Z</time></trkpt>
<trkpt lat="46.52936826" lon="6.94779935"><ele></ele><time>2014-5-15T13:7:56Z</time></trkpt>
<trkpt lat="46.52929625" lon="6.94790262"><ele></ele><time>2014-5-15T13:7:59Z</time></trkpt>
<trkpt lat="46.52921545" lon="6.94800052"><ele></ele><time>2014-5-15T13:8:2Z</time></trkpt>
<trkpt lat="46.52911236" lon="6.94811267"><ele></ele><time>2014-5-15T13:8:5Z</time></trkpt>
<trkpt lat="46.52911596" lon="6.94810848"><ele></ele><time>2014-5-15T13:8:8Z</time></trkpt>
<trkpt lat="46.52938686" lon="6.94783397"><ele></ele><time>2014-5-15T13:8:11Z</time></trkpt>
<trkpt lat="46.52956825" lon="6.94759039"><ele></ele><time>2014-5-15T13:8:14Z</time></trkpt>
<trkpt lat="46.52960974" lon="6.94753909"><ele></ele><time>2014-5-15T13:8:17Z</time></trkpt>
<trkpt lat="46.52973186" lon="6.94737774"><ele></ele><time>2014-5-15T13:8:20Z</time></trkpt>
<trkpt lat="46.52967839" lon="6.94689285"><ele></ele><time>2014-5-15T13:8:23Z</time></trkpt>
<trkpt lat="46.52962550" lon="6.94683585"><ele></ele><time>2014-5-15T13:8:26Z</time></trkpt>
<trkpt lat="46.52934889" lon="6.94618106"><ele></ele><time>2014-5-15T13:8:29Z</time></trkpt>
<trkpt lat="46.52938485" lon="6.94566255"><ele></ele><time>2014-5-15T13:8:32Z</time></trkpt>
<trkpt lat="46.52943263" lon="6.94527104"><ele></ele><time>2014-5-15T13:8:35Z</time></trkpt>
<trkpt lat="46.52957328" lon="6.94440770"><ele></ele><time>2014-5-15T13:8:38Z</time></trkpt>
<trkpt lat="46.52990939" lon="6.94322979"><ele></ele><time>2014-5-15T13:8:41Z</time></trkpt>
<trkpt lat="46.52994325" lon="6.94312879"><ele></ele><time>2014-5-15T13:8:44Z</time></trkpt>
<trkpt lat="46.52988710" lon="6.94260534"><ele></ele><time>2014-5-15T13:8:47Z</time></trkpt>
<trkpt lat="46.52973589" lon="6.94233729"><ele></ele><time>2014-5-15T13:8:50Z</time></trkpt>
<trkpt lat="46.52961594" lon="6.94204979"><ele></ele><time>2014-5-15T13:8:53Z</time></trkpt>
<trkpt lat="46.52959247" lon="6.94181903"><ele></ele><time>2014-5-15T13:8:56Z</time></trkpt>
<trkpt lat="46.52947429" lon="6.94136859"><ele></ele><time>2014-5-15T13:8:59Z</time></trkpt>
<trkpt lat="46.52931972" lon="6.94091287"><ele></ele><time>2014-5-15T13:9:2Z</time></trkpt>
<trkpt lat="46.52917488" lon="6.93998977"><ele></ele><time>2014-5-15T13:9:5Z</time></trkpt>
<trkpt lat="46.52916382" lon="6.93955768"><ele></ele><time>2014-5-15T13:9:8Z</time></trkpt>
<trkpt lat="46.52927689" lon="6.93901068"><ele></ele><time>2014-5-15T13:9:11Z</time></trkpt>
<trkpt lat="46.52943464" lon="6.93846024"><ele></ele><time>2014-5-15T13:9:14Z</time></trkpt>
<trkpt lat="46.52943774" lon="6.93773420"><ele></ele><time>2014-5-15T13:9:17Z</time></trkpt>
<trkpt lat="46.52938049" lon="6.93711989"><ele></ele><time>2014-5-15T13:9:20Z</time></trkpt>
<trkpt lat="46.52942617" lon="6.93668813"><ele></ele><time>2014-5-15T13:9:23Z</time></trkpt>
<trkpt lat="46.52949013" lon="6.93648839"><ele></ele><time>2014-5-15T13:9:26Z</time></trkpt>
<trkpt lat="46.52958618" lon="6.93618564"><ele></ele><time>2014-5-15T13:9:29Z</time></trkpt>
<trkpt lat="46.52975592" lon="6.93587987"><ele></ele><time>2014-5-15T13:9:32Z</time></trkpt>
<trkpt lat="46.52985709" lon="6.93576629"><ele></ele><time>2014-5-15T13:9:35Z</time></trkpt>
<trkpt lat="46.52985860" lon="6.93560804"><ele></ele><time>2014-5-15T13:9:38Z</time></trkpt>
<trkpt lat="46.52984049" lon="6.93562724"><ele></ele><time>2014-5-15T13:9:41Z</time></trkpt>
<trkpt lat="46.52971275" lon="6.93580929"><ele></ele><time>2014-5-15T13:9:44Z</time></trkpt>
<trkpt lat="46.52945492" lon="6.93618103"><ele></ele><time>2014-5-15T13:9:47Z</time></trkpt>
<trkpt lat="46.52943405" lon="6.93623585"><ele></ele><time>2014-5-15T13:9:50Z</time></trkpt>
<trkpt lat="46.52940304" lon="6.93624884"><ele></ele><time>2014-5-15T13:9:53Z</time></trkpt>
<trkpt lat="46.52939927" lon="6.93626393"><ele></ele><time>2014-5-15T13:9:56Z</time></trkpt>
<trkpt lat="46.52938049" lon="6.93630936"><ele></ele><time>2014-5-15T13:9:59Z</time></trkpt>
<trkpt lat="46.52912669" lon="6.93672636"><ele></ele><time>2014-5-15T13:10:2Z</time></trkpt>
<trkpt lat="46.52914186" lon="6.93744242"><ele></ele><time>2014-5-15T13:10:5Z</time></trkpt>
<trkpt lat="46.52915996" lon="6.93766588"><ele></ele><time>2014-5-15T13:10:8Z</time></trkpt>
<trkpt lat="46.52912593" lon="6.93796067"><ele></ele><time>2014-5-15T13:10:11Z</time></trkpt>
<trkpt lat="46.52886123" lon="6.93872276"><ele></ele><time>2014-5-15T13:10:14Z</time></trkpt>
<trkpt lat="46.52873567" lon="6.93932994"><ele></ele><time>2014-5-15T13:10:17Z</time></trkpt>
<trkpt lat="46.52854197" lon="6.93998784"><ele></ele><time>2014-5-15T13:10:20Z</time></trkpt>
<trkpt lat="46.52826034" lon="6.94060869"><ele></ele><time>2014-5-15T13:10:23Z</time></trkpt>
<trkpt lat="46.52793654" lon="6.94084212"><ele></ele><time>2014-5-15T13:10:26Z</time></trkpt>
<trkpt lat="46.52759003" lon="6.94100758"><ele></ele><time>2014-5-15T13:10:29Z</time></trkpt>
<trkpt lat="46.52740345" lon="6.94147127"><ele></ele><time>2014-5-15T13:10:32Z</time></trkpt>
<trkpt lat="46.52734193" lon="6.94187318"><ele></ele><time>2014-5-15T13:10:35Z</time></trkpt>
<trkpt lat="46.52733045" lon="6.94193009"><ele></ele><time>2014-5-15T13:10:38Z</time></trkpt>
<trkpt lat="46.52731268" lon="6.94224425"><ele></ele><time>2014-5-15T13:10:41Z</time></trkpt>
<trkpt lat="46.52732014" lon="6.94241825"><ele></ele><time>2014-5-15T13:10:44Z</time></trkpt>
<trkpt lat="46.52731050" lon="6.94276233"><ele></ele><time>2014-5-15T13:10:47Z</time></trkpt>
<trkpt lat="46.52729348" lon="6.94283165"><ele></ele><time>2014-5-15T13:10:50Z</time></trkpt>
<trkpt lat="46.52725744" lon="6.94293408"><ele></ele><time>2014-5-15T13:10:53Z</time></trkpt>
<trkpt lat="46.52716658" lon="6.94349474"><ele></ele><time>2014-5-15T13:10:56Z</time></trkpt>
<trkpt lat="46.52715434" lon="6.94392825"><ele></ele><time>2014-5-15T13:10:59Z</time></trkpt>
<trkpt lat="46.52713674" lon="6.94454466"><ele></ele><time>2014-5-15T13:11:2Z</time></trkpt>
<trkpt lat="46.52685368" lon="6.94513902"><ele></ele><time>2014-5-15T13:11:5Z</time></trkpt>
<trkpt lat="46.52676366" lon="6.94532149"><ele></ele><time>2014-5-15T13:11:8Z</time></trkpt>
<trkpt lat="46.52660860" lon="6.94554127"><ele></ele><time>2014-5-15T13:11:11Z</time></trkpt>
<trkpt lat="46.52659225" lon="6.94555309"><ele></ele><time>2014-5-15T13:11:14Z</time></trkpt>
<trkpt lat="46.52654355" lon="6.94560874"><ele></ele><time>2014-5-15T13:11:17Z</time></trkpt>
<trkpt lat="46.52646443" lon="6.94573640"><ele></ele><time>2014-5-15T13:11:20Z</time></trkpt>
<trkpt lat="46.52642964" lon="6.94579340"><ele></ele><time>2014-5-15T13:11:23Z</time></trkpt>
<trkpt lat="46.52636519" lon="6.94596070"><ele></ele><time>2014-5-15T13:11:26Z</time></trkpt>
<trkpt lat="46.52633820" lon="6.94614317"><ele></ele><time>2014-5-15T13:11:29Z</time></trkpt>
<trkpt lat="46.52634306" lon="6.94618944"><ele></ele><time>2014-5-15T13:11:32Z</time></trkpt>
<trkpt lat="46.52632462" lon="6.94633403"><ele></ele><time>2014-5-15T13:11:35Z</time></trkpt>
<trkpt lat="46.52629662" lon="6.94653528"><ele></ele><time>2014-5-15T13:11:38Z</time></trkpt>
<trkpt lat="46.52602119" lon="6.94673787"><ele></ele><time>2014-5-15T13:11:41Z</time></trkpt>
<trkpt lat="46.52596277" lon="6.94679269"><ele></ele><time>2014-5-15T13:11:44Z</time></trkpt>
<trkpt lat="46.52573504" lon="6.94698740"><ele></ele><time>2014-5-15T13:11:47Z</time></trkpt>
<trkpt lat="46.52556505" lon="6.94723274"><ele></ele><time>2014-5-15T13:11:50Z</time></trkpt>
<trkpt lat="46.52555818" lon="6.94722528"><ele></ele><time>2014-5-15T13:11:53Z</time></trkpt>
<trkpt lat="46.52548333" lon="6.94728764"><ele></ele><time>2014-5-15T13:11:56Z</time></trkpt>
<trkpt lat="46.52547377" lon="6.94727456"><ele></ele><time>2014-5-15T13:11:59Z</time></trkpt>
<trkpt lat="46.52548534" lon="6.94726995"><ele></ele><time>2014-5-15T13:12:2Z</time></trkpt>
<trkpt lat="46.52551987" lon="6.94724229"><ele></ele><time>2014-5-15T13:12:5Z</time></trkpt>
<trkpt lat="46.52556128" lon="6.94723399"><ele></ele><time>2014-5-15T13:12:8Z</time></trkpt>
<trkpt lat="46.52555273" lon="6.94723064"><ele></ele><time>2014-5-15T13:12:11Z</time></trkpt>
<trkpt lat="46.52558265" lon="6.94718647"><ele></ele><time>2014-5-15T13:12:14Z</time></trkpt>
<trkpt lat="46.52556664" lon="6.94716895"><ele></ele><time>2014-5-15T13:12:17Z</time></trkpt>
<trkpt lat="46.52561048" lon="6.94725319"><ele></ele><time>2014-5-15T13:12:20Z</time></trkpt>
<trkpt lat="46.52561869" lon="6.94723450"><ele></ele><time>2014-5-15T13:12:23Z</time></trkpt>
<trkpt lat="46.52565725" lon="6.94713777"><ele></ele><time>2014-5-15T13:12:26Z</time></trkpt>
<trkpt lat="46.52562775" lon="6.94708304"><ele></ele><time>2014-5-15T13:12:29Z</time></trkpt>
<trkpt lat="46.52564200" lon="6.94709594"><ele></ele><time>2014-5-15T13:12:32Z</time></trkpt>
<trkpt lat="46.52559564" lon="6.94719024"><ele></ele><time>2014-5-15T13:12:35Z</time></trkpt>
<trkpt lat="46.52559497" lon="6.94716895"><ele></ele><time>2014-5-15T13:12:38Z</time></trkpt>
<trkpt lat="46.52563764" lon="6.94711279"><ele></ele><time>2014-5-15T13:12:41Z</time></trkpt>
<trkpt lat="46.52587334" lon="6.94678539"><ele></ele><time>2014-5-15T13:12:44Z</time></trkpt>
<trkpt lat="46.52617710" lon="6.94653318"><ele></ele><time>2014-5-15T13:12:47Z</time></trkpt>
<trkpt lat="46.52630148" lon="6.94621693"><ele></ele><time>2014-5-15T13:12:50Z</time></trkpt>
<trkpt lat="46.52630928" lon="6.94618768"><ele></ele><time>2014-5-15T13:12:53Z</time></trkpt>
<trkpt lat="46.52632487" lon="6.94604804"><ele></ele><time>2014-5-15T13:12:56Z</time></trkpt>
<trkpt lat="46.52633334" lon="6.94597369"><ele></ele><time>2014-5-15T13:12:59Z</time></trkpt>
<trkpt lat="46.52630643" lon="6.94606195"><ele></ele><time>2014-5-15T13:13:2Z</time></trkpt>
<trkpt lat="46.52620099" lon="6.94608266"><ele></ele><time>2014-5-15T13:13:5Z</time></trkpt>
<trkpt lat="46.52610057" lon="6.94604326"><ele></ele><time>2014-5-15T13:13:8Z</time></trkpt>
<trkpt lat="46.52599923" lon="6.94598987"><ele></ele><time>2014-5-15T13:13:11Z</time></trkpt>
<trkpt lat="46.52596068" lon="6.94599138"><ele></ele><time>2014-5-15T13:13:14Z</time></trkpt>
<trkpt lat="46.52590452" lon="6.94603094"><ele></ele><time>2014-5-15T13:13:17Z</time></trkpt>
<trkpt lat="46.52583025" lon="6.94606128"><ele></ele><time>2014-5-15T13:13:20Z</time></trkpt>
<trkpt lat="46.52577988" lon="6.94608266"><ele></ele><time>2014-5-15T13:13:23Z</time></trkpt>
<trkpt lat="46.52574769" lon="6.94610135"><ele></ele><time>2014-5-15T13:13:26Z</time></trkpt>
<trkpt lat="46.52569137" lon="6.94611618"><ele></ele><time>2014-5-15T13:13:29Z</time></trkpt>
<trkpt lat="46.52562398" lon="6.94616857"><ele></ele><time>2014-5-15T13:13:32Z</time></trkpt>
<trkpt lat="46.52559246" lon="6.94620252"><ele></ele><time>2014-5-15T13:13:35Z</time></trkpt>
<trkpt lat="46.52556363" lon="6.94626085"><ele></ele><time>2014-5-15T13:13:38Z</time></trkpt>
<trkpt lat="46.52551124" lon="6.94632037"><ele></ele><time>2014-5-15T13:13:41Z</time></trkpt>
<trkpt lat="46.52540077" lon="6.94637284"><ele></ele><time>2014-5-15T13:13:44Z</time></trkpt>
<trkpt lat="46.52532642" lon="6.94637845"><ele></ele><time>2014-5-15T13:13:47Z</time></trkpt>
<trkpt lat="46.52532348" lon="6.94637393"><ele></ele><time>2014-5-15T13:13:50Z</time></trkpt>
<trkpt lat="46.52520027" lon="6.94634828"><ele></ele><time>2014-5-15T13:13:53Z</time></trkpt>
<trkpt lat="46.52517940" lon="6.94636906"><ele></ele><time>2014-5-15T13:13:56Z</time></trkpt>
<trkpt lat="46.52518703" lon="6.94639446"><ele></ele><time>2014-5-15T13:13:59Z</time></trkpt>
<trkpt lat="46.52516766" lon="6.94633286"><ele></ele><time>2014-5-15T13:14:2Z</time></trkpt>
<trkpt lat="46.52518644" lon="6.94629472"><ele></ele><time>2014-5-15T13:14:5Z</time></trkpt>
<trkpt lat="46.52513078" lon="6.94634208"><ele></ele><time>2014-5-15T13:14:8Z</time></trkpt>
<trkpt lat="46.52504604" lon="6.94644174"><ele></ele><time>2014-5-15T13:14:11Z</time></trkpt>
<trkpt lat="46.52499190" lon="6.94652958"><ele></ele><time>2014-5-15T13:14:14Z</time></trkpt>
<trkpt lat="46.52489886" lon="6.94662999"><ele></ele><time>2014-5-15T13:14:17Z</time></trkpt>
<trkpt lat="46.52485175" lon="6.94675103"><ele></ele><time>2014-5-15T13:14:20Z</time></trkpt>
<trkpt lat="46.52478503" lon="6.94691473"><ele></ele><time>2014-5-15T13:14:23Z</time></trkpt>
<trkpt lat="46.52471119" lon="6.94700450"><ele></ele><time>2014-5-15T13:14:26Z</time></trkpt>
<trkpt lat="46.52464882" lon="6.94713064"><ele></ele><time>2014-5-15T13:14:29Z</time></trkpt>
<trkpt lat="46.52458596" lon="6.94723978"><ele></ele><time>2014-5-15T13:14:32Z</time></trkpt>
<trkpt lat="46.52444112" lon="6.94736995"><ele></ele><time>2014-5-15T13:14:35Z</time></trkpt>
<trkpt lat="46.52432319" lon="6.94754949"><ele></ele><time>2014-5-15T13:14:38Z</time></trkpt>
<trkpt lat="46.52431724" lon="6.94755997"><ele></ele><time>2014-5-15T13:14:41Z</time></trkpt>
<trkpt lat="46.52420106" lon="6.94779592"><ele></ele><time>2014-5-15T13:14:44Z</time></trkpt>
<trkpt lat="46.52412705" lon="6.94783263"><ele></ele><time>2014-5-15T13:14:47Z</time></trkpt>
<trkpt lat="46.52410517" lon="6.94783087"><ele></ele><time>2014-5-15T13:14:50Z</time></trkpt>
<trkpt lat="46.52405480" lon="6.94782877"><ele></ele><time>2014-5-15T13:14:53Z</time></trkpt>
<trkpt lat="46.52379924" lon="6.94779810"><ele></ele><time>2014-5-15T13:14:56Z</time></trkpt>
<trkpt lat="46.52345683" lon="6.94773406"><ele></ele><time>2014-5-15T13:14:59Z</time></trkpt>
<trkpt lat="46.52328350" lon="6.94789256"><ele></ele><time>2014-5-15T13:15:2Z</time></trkpt>
<trkpt lat="46.52313279" lon="6.94836589"><ele></ele><time>2014-5-15T13:15:5Z</time></trkpt>
<trkpt lat="46.52295568" lon="6.94872622"><ele></ele><time>2014-5-15T13:15:8Z</time></trkpt>
<trkpt lat="46.52282936" lon="6.94892798"><ele></ele><time>2014-5-15T13:15:11Z</time></trkpt>
<trkpt lat="46.52281662" lon="6.94894633"><ele></ele><time>2014-5-15T13:15:14Z</time></trkpt>
<trkpt lat="46.52255972" lon="6.94926593"><ele></ele><time>2014-5-15T13:15:17Z</time></trkpt>
<trkpt lat="46.52235252" lon="6.94933643"><ele></ele><time>2014-5-15T13:15:20Z</time></trkpt>
<trkpt lat="46.52214926" lon="6.94938253"><ele></ele><time>2014-5-15T13:15:23Z</time></trkpt>
<trkpt lat="46.52203518" lon="6.94936107"><ele></ele><time>2014-5-15T13:15:26Z</time></trkpt>
<trkpt lat="46.52201464" lon="6.94928329"><ele></ele><time>2014-5-15T13:15:29Z</time></trkpt>
<trkpt lat="46.52210483" lon="6.94891834"><ele></ele><time>2014-5-15T13:15:32Z</time></trkpt>
<trkpt lat="46.52211053" lon="6.94857124"><ele></ele><time>2014-5-15T13:15:35Z</time></trkpt>
<trkpt lat="46.52209947" lon="6.94861307"><ele></ele><time>2014-5-15T13:15:38Z</time></trkpt>
<trkpt lat="46.52210148" lon="6.94857493"><ele></ele><time>2014-5-15T13:15:41Z</time></trkpt>
<trkpt lat="46.52210257" lon="6.94856864"><ele></ele><time>2014-5-15T13:15:44Z</time></trkpt>
<trkpt lat="46.52210265" lon="6.94857736"><ele></ele><time>2014-5-15T13:15:47Z</time></trkpt>
<trkpt lat="46.52211095" lon="6.94858105"><ele></ele><time>2014-5-15T13:15:50Z</time></trkpt>
<trkpt lat="46.52211573" lon="6.94857996"><ele></ele><time>2014-5-15T13:15:53Z</time></trkpt>
<trkpt lat="46.52212386" lon="6.94859974"><ele></ele><time>2014-5-15T13:15:56Z</time></trkpt>
<trkpt lat="46.52211338" lon="6.94860050"><ele></ele><time>2014-5-15T13:15:59Z</time></trkpt>
<trkpt lat="46.52208237" lon="6.94858943"><ele></ele><time>2014-5-15T13:16:2Z</time></trkpt>
</trkseg></trk></gpx>